Data for 09/30/2009

Time Sea-Level Adjusted Pressure Absolute Pressure Temperature Relative Humidity Dew Point Precipitation   
(mb) (inHg) (mb) (inHg) (C) (F) (%) (C) (F) (mm) (in)
00:01 1008 29.77 838 24.75 12 53.7 49 1.8 35.3 12.37 0.487
00:02 1008 29.77 838 24.75 12.1 53.7 50 2.1 35.7 12.47 0.491
00:03 1008 29.77 838 24.75 12.1 53.7 50 2.1 35.8 12.45 0.49
00:04 1008 29.77 838 24.75 12 53.6 51 2.2 35.9 12.4 0.488
00:05 1008 29.77 838 24.75 12 53.6 48 1.5 34.7 12.36 0.487
00:06 1008 29.77 838 24.75 12.1 53.8 49 1.9 35.3 12.49 0.492
00:07 1008 29.77 838 24.75 12.2 53.9 48 1.6 34.9 12.52 0.493
00:08 1008 29.77 838 24.75 12.1 53.9 48 1.7 35 12.53 0.493
00:09 1008 29.77 838 24.75 12.2 54 49 1.8 35.3 12.56 0.494
00:10 1008 29.77 838 24.75 12.2 53.9 49 1.8 35.3 12.53 0.493
00:11 1008 29.77 838 24.75 12.1 53.8 49 1.7 35.1 12.46 0.491
00:12 1008 29.77 838 24.75 12.1 53.8 49 1.9 35.3 12.43 0.489
00:13 1008 29.77 838 24.75 12 53.6 50 2 35.7 12.39 0.488
00:14 1008 29.77 838 24.75 11.9 53.4 51 2.2 35.9 12.29 0.484
00:15 1008 29.77 838 24.75 11.8 53.2 50 1.8 35.3 12.22 0.481
00:16 1009 29.8 838 24.75 11.7 53.1 52 2.2 36 12.15 0.478
00:17 1009 29.8 838 24.75 11.6 53 53 2.3 36.2 12.1 0.476
00:18 1009 29.8 838 24.75 11.5 52.7 53 2.2 36 11.95 0.47
00:19 1009 29.8 838 24.75 11.4 52.6 52 2.1 35.7 11.86 0.467
00:20 1009 29.8 838 24.75 11.4 52.5 53 2.2 36 11.81 0.465
00:21 1009 29.8 838 24.75 11.4 52.5 53 2.1 35.7 11.78 0.464
00:22 1009 29.8 838 24.75 11.4 52.5 51 1.7 35.1 11.77 0.463
00:23 1009 29.8 838 24.75 11.4 52.6 53 2.1 35.8 11.8 0.465
00:24 1009 29.8 838 24.75 11.4 52.5 52 2 35.6 11.76 0.463
00:25 1009 29.8 838 24.75 11.3 52.3 53 2 35.7 11.69 0.46
00:26 1009 29.8 838 24.75 11.2 52.2 52 1.7 35 11.63 0.458
00:27 1009 29.8 838 24.75 11.3 52.3 52 1.8 35.3 11.6 0.457
00:28 1009 29.8 838 24.75 11.3 52.3 51 1.6 35 11.61 0.457
00:29 1009 29.8 838 24.75 11.3 52.3 52 1.9 35.4 11.64 0.458
00:30 1009 29.8 838 24.75 11.2 52.2 53 2.1 35.7 11.65 0.459
00:31 1009 29.8 838 24.75 11.2 52.1 53 2 35.7 11.59 0.456
00:32 1009 29.8 838 24.75 11.1 51.9 53 1.9 35.4 11.51 0.453
00:33 1009 29.8 838 24.75 11 51.9 53 1.9 35.4 11.44 0.45
00:34 1009 29.8 838 24.75 11 51.9 54 2 35.7 11.43 0.45
00:35 1009 29.8 838 24.75 11 51.8 53 1.8 35.3 11.44 0.45
00:36 1009 29.8 838 24.75 11.1 51.9 52 1.6 35 11.41 0.449
00:37 1009 29.8 838 24.75 11.1 52.1 52 1.6 34.9 11.51 0.453
00:38 1009 29.8 838 24.75 11.1 52 52 1.6 34.9 11.55 0.455
00:39 1009 29.8 838 24.75 11.2 52.1 51 1.6 34.8 11.53 0.454
00:40 1009 29.8 838 24.75 11.2 52.1 52 1.6 35 11.55 0.455
00:41 1009 29.8 838 24.75 11.2 52.2 52 1.7 35 11.57 0.456
00:42 1009 29.8 838 24.75 11.2 52.2 52 1.7 35.1 11.6 0.457
00:43 1009 29.8 838 24.75 11.2 52.2 51 1.6 34.8 11.58 0.456
00:44 1009 29.8 838 24.75 11.3 52.3 51 1.6 34.9 11.63 0.458
00:45 1009 29.8 838 24.75 11.2 52.2 51 1.5 34.8 11.63 0.458
00:46 1009 29.8 838 24.75 11.2 52.2 51 1.6 34.9 11.61 0.457
00:47 1009 29.8 838 24.75 11.2 52.2 51 1.5 34.7 11.6 0.457
00:48 1009 29.8 838 24.75 11.2 52.2 52 1.7 35 11.56 0.455
00:49 1009 29.8 839 24.78 11.2 52.1 52 1.7 35.1 11.52 0.454
00:50 1009 29.8 839 24.78 11.1 52 52 1.7 35 11.49 0.452
00:51 1009 29.8 839 24.78 11 51.9 52 1.7 35.1 11.45 0.451
00:52 1009 29.8 839 24.78 11 51.8 52 1.7 35 11.4 0.449
00:53 1009 29.8 839 24.78 11 51.8 52 1.6 34.9 11.37 0.448
00:54 1009 29.8 839 24.78 11 51.7 52 1.5 34.8 11.35 0.447
00:55 1009 29.8 839 24.78 10.9 51.6 52 1.4 34.6 11.31 0.445
00:56 1009 29.8 839 24.78 10.9 51.6 51 1.2 34.2 11.27 0.444
00:57 1009 29.8 839 24.78 10.9 51.6 51 1.3 34.4 11.24 0.443
00:58 1009 29.8 839 24.78 10.9 51.6 51 1.1 34 11.3 0.445
00:59 1009 29.8 839 24.78 10.9 51.7 51 1.2 34.2 11.31 0.445
01:00 1009 29.8 839 24.78 10.9 51.6 51 1.1 33.9 11.29 0.444
01:01 1009 29.8 839 24.78 10.9 51.6 51 1.1 33.9 11.29 0.444
01:02 1009 29.8 838 24.75 10.9 51.5 51 1.3 34.3 11.24 0.443
01:03 1009 29.8 838 24.75 10.8 51.4 51 1 33.9 11.2 0.441
01:04 1009 29.8 838 24.75 10.8 51.4 52 1.3 34.4 11.16 0.439
01:05 1009 29.8 838 24.75 10.7 51.2 51 1.1 34.1 11.11 0.437
01:06 1009 29.8 838 24.75 10.6 51.1 51 1.1 33.9 11.02 0.434
01:07 1009 29.8 838 24.75 10.6 51 52 1.2 34.1 10.96 0.431
01:08 1009 29.8 838 24.75 10.4 50.8 53 1.2 34.1 10.85 0.427
01:09 1009 29.8 838 24.75 10.3 50.6 54 1.4 34.4 10.73 0.422
01:10 1009 29.8 838 24.75 10.2 50.4 53 1.2 34.2 10.63 0.419
01:11 1009 29.8 838 24.75 10.1 50.2 54 1.2 34.2 10.55 0.415
01:12 1009 29.8 838 24.75 10 50.1 53 0.9 33.6 10.45 0.411
01:13 1009 29.8 838 24.75 10 50 54 1.1 33.9 10.41 0.41
01:14 1009 29.8 838 24.75 9.9 49.9 54 1.2 34.1 10.37 0.408
01:15 1009 29.8 838 24.75 9.9 49.7 55 1.3 34.3 10.27 0.404
01:16 1009 29.8 838 24.75 9.7 49.5 55 1.1 33.9 10.18 0.401
01:17 1009 29.8 839 24.78 9.7 49.4 55 1 33.8 10.1 0.398
01:18 1009 29.8 839 24.78 9.6 49.3 54 0.9 33.6 10.02 0.394
01:19 1009 29.8 839 24.78 9.6 49.3 55 1 33.7 9.97 0.393
01:20 1009 29.8 839 24.78 9.6 49.2 54 0.9 33.6 9.93 0.391
01:21 1009 29.8 839 24.78 9.5 49.2 55 1 33.8 9.93 0.391
01:22 1009 29.8 839 24.78 9.5 49.2 54 0.8 33.4 9.89 0.389
01:23 1009 29.8 839 24.78 9.5 49.2 55 1 33.8 9.92 0.391
01:24 1009 29.8 839 24.78 9.5 49.1 55 0.9 33.7 9.92 0.391
01:25 1009 29.8 839 24.78 9.5 49 55 0.9 33.7 9.88 0.389
01:26 1009 29.8 839 24.78 9.4 49 55 0.9 33.6 9.84 0.387
01:27 1009 29.8 839 24.78 9.5 49.1 54 0.7 33.3 9.84 0.387
01:28 1010 29.83 839 24.78 9.5 49.2 54 0.7 33.2 9.93 0.391
01:29 1010 29.83 839 24.78 9.6 49.3 55 1 33.7 9.98 0.393
01:30 1010 29.83 839 24.78 9.6 49.3 56 1.2 34.1 10.01 0.394
01:31 1010 29.83 839 24.78 9.6 49.2 55 1.1 33.9 9.93 0.391
01:32 1010 29.83 839 24.78 9.5 49.1 56 1.3 34.3 9.9 0.39
01:33 1010 29.83 839 24.78 9.5 49 56 1.1 34 9.89 0.389
01:34 1010 29.83 839 24.78 9.5 49.1 55 1 33.8 9.85 0.388
01:35 1010 29.83 839 24.78 9.6 49.2 56 1.1 34 9.92 0.391
01:36 1010 29.83 839 24.78 9.6 49.3 55 1 33.9 9.99 0.393
01:37 1010 29.83 839 24.78 9.7 49.4 54 1 33.7 10.04 0.395
01:38 1010 29.83 839 24.78 9.7 49.5 54 1 33.7 10.09 0.397
01:39 1010 29.83 839 24.78 9.8 49.6 54 1.1 33.9 10.17 0.4
01:40 1010 29.83 839 24.78 9.8 49.7 54 1.1 34 10.21 0.402
01:41 1010 29.83 839 24.78 9.8 49.7 54 1 33.9 10.21 0.402
01:42 1010 29.83 839 24.78 9.8 49.7 55 1.1 34 10.22 0.402
01:43 1010 29.83 839 24.78 9.8 49.7 55 1.3 34.4 10.2 0.402
01:44 1010 29.83 839 24.78 9.8 49.6 55 1.2 34.2 10.18 0.401
01:45 1010 29.83 839 24.78 9.8 49.6 55 1.3 34.3 10.15 0.4
01:46 1010 29.83 839 24.78 9.8 49.6 56 1.4 34.5 10.15 0.4
01:47 1010 29.83 839 24.78 9.7 49.5 56 1.5 34.7 10.14 0.399
01:48 1010 29.83 839 24.78 9.7 49.4 56 1.4 34.5 10.09 0.397
01:49 1010 29.83 839 24.78 9.6 49.4 56 1.4 34.5 10.02 0.394
01:50 1010 29.83 839 24.78 9.6 49.3 57 1.5 34.7 10 0.394
01:51 1010 29.83 839 24.78 9.6 49.3 56 1.3 34.4 9.98 0.393
01:52 1010 29.83 839 24.78 9.6 49.2 57 1.6 34.8 9.93 0.391
01:53 1010 29.83 839 24.78 9.5 49.1 57 1.4 34.5 9.9 0.39
01:54 1010 29.83 839 24.78 9.5 49.1 57 1.5 34.7 9.87 0.389
01:55 1010 29.83 839 24.78 9.4 49 57 1.5 34.6 9.82 0.387
01:56 1010 29.83 839 24.78 9.4 48.9 59 1.7 35.1 9.83 0.387
01:57 1010 29.83 839 24.78 9.3 48.8 60 2 35.6 9.76 0.384
01:58 1010 29.83 839 24.78 9.3 48.7 60 2 35.6 9.64 0.38
01:59 1010 29.83 839 24.78 9.2 48.5 61 2.1 35.7 9.58 0.377
02:00 1010 29.83 839 24.78 9.1 48.3 63 2.4 36.4 9.52 0.375
02:01 1010 29.83 839 24.78 9 48.2 64 2.5 36.5 9.42 0.371
02:02 1010 29.83 839 24.78 8.9 48.1 63 2.3 36.2 9.34 0.368
02:03 1010 29.83 839 24.78 8.8 47.8 64 2.3 36.2 9.22 0.363
02:04 1010 29.83 839 24.78 8.7 47.7 63 2.2 36 9.15 0.36
02:05 1010 29.83 839 24.78 8.7 47.6 65 2.5 36.4 9.11 0.359
02:06 1010 29.83 839 24.78 8.7 47.6 65 2.5 36.5 9.05 0.356
02:07 1010 29.83 839 24.78 8.6 47.4 66 2.6 36.7 9 0.354
02:08 1010 29.83 839 24.78 8.5 47.3 65 2.4 36.3 8.93 0.352
02:09 1010 29.83 840 24.81 8.5 47.2 67 2.7 36.8 8.87 0.349
02:10 1010 29.83 839 24.78 8.3 47 67 2.7 36.8 8.78 0.346
02:11 1010 29.83 840 24.81 8.3 46.9 68 2.6 36.8 8.67 0.341
02:12 1010 29.83 839 24.78 8.2 46.7 67 2.5 36.4 8.62 0.339
02:13 1010 29.83 839 24.78 8.1 46.6 67 2.4 36.4 8.5 0.335
02:14 1010 29.83 839 24.78 8.1 46.5 67 2.4 36.4 8.48 0.334
02:15 1010 29.83 839 24.78 8.1 46.5 68 2.5 36.4 8.44 0.332
02:16 1010 29.83 839 24.78 8 46.5 67 2.3 36.2 8.39 0.33
02:17 1010 29.83 839 24.78 8 46.4 68 2.5 36.5 8.38 0.33
02:18 1010 29.83 839 24.78 7.9 46.3 68 2.5 36.5 8.33 0.328
02:19 1010 29.83 840 24.81 7.8 46.1 69 2.6 36.6 8.26 0.325
02:20 1010 29.83 840 24.81 7.8 46 69 2.5 36.5 8.15 0.321
02:21 1010 29.83 840 24.81 7.7 45.9 69 2.5 36.4 8.14 0.32
02:22 1010 29.83 840 24.81 7.7 45.9 70 2.6 36.7 8.11 0.319
02:23 1010 29.83 840 24.81 7.7 45.8 69 2.4 36.3 8.08 0.318
02:24 1010 29.83 840 24.81 7.7 45.9 70 2.6 36.6 8.1 0.319
02:25 1010 29.83 839 24.78 7.7 45.8 69 2.4 36.3 8.08 0.318
02:26 1010 29.83 839 24.78 7.7 45.8 69 2.4 36.4 8.08 0.318
02:27 1010 29.83 839 24.78 7.7 45.8 68 2.2 36 8.04 0.317
02:28 1010 29.83 839 24.78 7.6 45.7 70 2.4 36.4 8.03 0.316
02:29 1010 29.83 839 24.78 7.6 45.6 69 2.4 36.2 8.02 0.316
02:30 1010 29.83 840 24.81 7.6 45.7 70 2.4 36.4 7.95 0.313
02:31 1010 29.83 840 24.81 7.5 45.5 70 2.4 36.3 7.89 0.311
02:32 1010 29.83 840 24.81 7.5 45.5 71 2.5 36.6 7.88 0.31
02:33 1010 29.83 840 24.81 7.5 45.4 71 2.5 36.5 7.86 0.309
02:34 1010 29.83 840 24.81 7.4 45.3 71 2.5 36.4 7.81 0.307
02:35 1010 29.83 840 24.81 7.4 45.2 71 2.6 36.6 7.77 0.306
02:36 1010 29.83 840 24.81 7.3 45.2 72 2.7 36.8 7.69 0.303
02:37 1010 29.83 840 24.81 7.3 45.1 72 2.6 36.8 7.67 0.302
02:38 1010 29.83 840 24.81 7.2 45 73 2.7 36.9 7.62 0.3
02:39 1010 29.83 840 24.81 7.1 44.9 72 2.5 36.5 7.54 0.297
02:40 1010 29.83 840 24.81 7.1 44.8 73 2.7 36.8 7.55 0.297
02:41 1010 29.83 840 24.81 7.1 44.7 74 2.8 37 7.48 0.294
02:42 1010 29.83 839 24.78 7 44.6 74 2.7 36.9 7.44 0.293
02:43 1010 29.83 840 24.81 6.9 44.5 75 2.8 37 7.39 0.291
02:44 1010 29.83 840 24.81 6.9 44.4 75 2.8 37.1 7.31 0.288
02:45 1010 29.83 840 24.81 6.8 44.3 76 3 37.3 7.26 0.286
02:46 1010 29.83 840 24.81 6.8 44.2 76 2.9 37.3 7.18 0.283
02:47 1010 29.83 840 24.81 6.7 44.1 77 3 37.4 7.12 0.28
02:48 1010 29.83 840 24.81 6.6 43.8 78 3 37.4 7.05 0.278
02:49 1010 29.83 840 24.81 6.5 43.7 78 2.9 37.2 6.987 0.275
02:50 1010 29.83 840 24.81 6.5 43.7 78 2.9 37.3 6.902 0.272
02:51 1010 29.83 840 24.81 6.5 43.6 78 3 37.3 6.857 0.27
02:52 1010 29.83 840 24.81 6.4 43.5 78 2.9 37.2 6.817 0.268
02:53 1010 29.83 840 24.81 6.4 43.5 79 3 37.4 6.823 0.269
02:54 1010 29.83 840 24.81 6.4 43.5 78 2.9 37.2 6.8 0.268
02:55 1011 29.85 840 24.81 6.3 43.4 79 3 37.4 6.817 0.268
02:56 1011 29.85 840 24.81 6.3 43.4 79 3 37.3 6.749 0.266
02:57 1011 29.85 840 24.81 6.3 43.4 79 2.9 37.2 6.732 0.265
02:58 1011 29.85 840 24.81 6.3 43.3 79 3 37.3 6.744 0.266
02:59 1011 29.85 840 24.81 6.2 43.2 79 2.9 37.2 6.682 0.263
03:00 1011 29.85 840 24.81 6.3 43.3 80 3 37.4 6.689 0.263
03:01 1010 29.83 840 24.81 6.2 43.2 80 3.1 37.5 6.632 0.261
03:02 1010 29.83 840 24.81 6.2 43.2 81 3.1 37.6 6.65 0.262
03:03 1010 29.83 840 24.81 6.1 43.1 81 3.1 37.5 6.582 0.259
03:04 1010 29.83 840 24.81 6.1 43.1 81 3.1 37.5 6.56 0.258
03:05 1010 29.83 839 24.78 6.1 43 81 3 37.4 6.527 0.257
03:06 1010 29.83 840 24.81 6.1 42.9 81 3.1 37.7 6.504 0.256
03:07 1010 29.83 840 24.81 6 42.9 81 3.1 37.6 6.436 0.253
03:08 1010 29.83 840 24.81 6 42.8 81 3 37.4 6.421 0.253
03:09 1010 29.83 840 24.81 6 42.8 82 3.1 37.6 6.36 0.25
03:10 1011 29.85 840 24.81 5.9 42.7 82 3.2 37.7 6.371 0.251
03:11 1011 29.85 840 24.81 5.9 42.7 83 3.2 37.8 6.35 0.25
03:12 1011 29.85 840 24.81 5.9 42.6 83 3.2 37.7 6.328 0.249
03:13 1011 29.85 840 24.81 5.9 42.6 83 3.2 37.8 6.299 0.248
03:14 1011 29.85 840 24.81 5.9 42.6 83 3.2 37.7 6.295 0.248
03:15 1011 29.85 840 24.81 5.9 42.6 83 3.1 37.6 6.273 0.247
03:16 1011 29.85 840 24.81 5.9 42.6 82 3 37.4 6.25 0.246
03:17 1010 29.83 840 24.81 5.9 42.5 82 2.9 37.3 6.268 0.247
03:18 1010 29.83 840 24.81 5.9 42.5 82 3 37.3 6.251 0.246
03:19 1010 29.83 840 24.81 5.8 42.5 82 3 37.3 6.274 0.247
03:20 1010 29.83 840 24.81 5.9 42.5 82 3.1 37.5 6.247 0.246
03:21 1010 29.83 840 24.81 5.8 42.4 82 3 37.4 6.247 0.246
03:22 1010 29.83 840 24.81 5.8 42.4 82 3 37.4 6.162 0.243
03:23 1010 29.83 840 24.81 5.7 42.3 82 2.9 37.2 6.151 0.242
03:24 1010 29.83 840 24.81 5.7 42.3 82 2.9 37.3 6.14 0.242
03:25 1010 29.83 840 24.81 5.7 42.3 83 3 37.4 6.129 0.241
03:26 1010 29.83 840 24.81 5.7 42.3 82 3 37.3 6.123 0.241
03:27 1011 29.85 840 24.81 5.7 42.2 83 2.9 37.3 6.095 0.24
03:28 1011 29.85 840 24.81 5.7 42.2 82 2.9 37.3 6.124 0.241
03:29 1011 29.85 840 24.81 5.7 42.2 82 2.9 37.2 6.096 0.24
03:30 1011 29.85 840 24.81 5.7 42.2 82 2.8 37.1 6.05 0.238
03:31 1011 29.85 840 24.81 5.7 42.2 82 2.9 37.2 6.056 0.238
03:32 1010 29.83 840 24.81 5.7 42.2 82 2.9 37.2 6.057 0.238
03:33 1011 29.85 840 24.81 5.6 42.2 82 2.9 37.2 6.028 0.237
03:34 1011 29.85 840 24.81 5.7 42.2 82 2.8 37.1 6.017 0.237
03:35 1010 29.83 840 24.81 5.6 42.1 82 2.8 37.1 6.057 0.238
03:36 1011 29.85 840 24.81 5.6 42.1 83 2.9 37.3 6.057 0.238
03:37 1011 29.85 840 24.81 5.6 42.1 83 2.9 37.2 6.023 0.237
03:38 1011 29.85 840 24.81 5.6 42.1 82 2.8 37.1 6.029 0.237
03:39 1011 29.85 840 24.81 5.6 42.1 82 2.8 37 5.978 0.235
03:40 1011 29.85 840 24.81 5.6 42.1 82 2.8 37.1 5.972 0.235
03:41 1011 29.85 840 24.81 5.6 42 82 2.8 37.1 5.984 0.236
03:42 1011 29.85 840 24.81 5.6 42 82 2.7 36.9 5.961 0.235
03:43 1011 29.85 840 24.81 5.6 42 82 2.7 36.9 5.967 0.235
03:44 1011 29.85 840 24.81 5.6 42 82 2.7 36.9 5.956 0.234
03:45 1011 29.85 840 24.81 5.6 42 82 2.8 37 5.978 0.235
03:46 1011 29.85 840 24.81 5.6 42 83 2.9 37.2 5.944 0.234
03:47 1011 29.85 840 24.81 5.5 41.9 83 2.8 37 5.944 0.234
03:48 1011 29.85 840 24.81 5.5 41.9 83 2.8 37.1 5.916 0.233
03:49 1011 29.85 840 24.81 5.5 41.9 83 2.9 37.2 5.871 0.231
03:50 1011 29.85 840 24.81 5.4 41.8 84 2.9 37.2 5.871 0.231
03:51 1011 29.85 840 24.81 5.4 41.7 84 2.9 37.2 5.803 0.228
03:52 1011 29.85 840 24.81 5.4 41.7 84 2.8 37.1 5.781 0.228
03:53 1011 29.85 840 24.81 5.4 41.7 84 2.8 37.1 5.769 0.227
03:54 1011 29.85 840 24.81 5.4 41.6 84 2.9 37.2 5.769 0.227
03:55 1011 29.85 840 24.81 5.3 41.5 84 2.9 37.1 5.752 0.226
03:56 1011 29.85 840 24.81 5.3 41.6 84 2.9 37.2 5.735 0.226
03:57 1011 29.85 840 24.81 5.3 41.6 84 2.8 37.1 5.752 0.226
03:58 1011 29.85 840 24.81 5.3 41.5 85 2.9 37.2 5.685 0.224
03:59 1011 29.85 840 24.81 5.3 41.5 85 2.9 37.2 5.685 0.224
04:00 1011 29.85 840 24.81 5.2 41.4 85 2.9 37.1 5.69 0.224
04:01 1011 29.85 840 24.81 5.2 41.4 85 2.8 37.1 5.656 0.223
04:02 1011 29.85 840 24.81 5.2 41.4 85 2.9 37.2 5.645 0.222
04:03 1011 29.85 840 24.81 5.2 41.4 85 2.9 37.3 5.645 0.222
04:04 1011 29.85 840 24.81 5.2 41.4 85 2.9 37.2 5.634 0.222
04:05 1011 29.85 840 24.81 5.2 41.3 85 2.9 37.3 5.611 0.221
04:06 1011 29.85 840 24.81 5.2 41.3 85 2.8 37.1 5.606 0.221
04:07 1011 29.85 840 24.81 5.2 41.3 85 2.9 37.3 5.594 0.22
04:08 1011 29.85 840 24.81 5.2 41.3 86 3 37.4 5.611 0.221
04:09 1011 29.85 840 24.81 5.1 41.2 86 2.9 37.2 5.549 0.218
04:10 1011 29.85 840 24.81 5.1 41.2 86 2.9 37.3 5.555 0.219
04:11 1011 29.85 840 24.81 5.1 41.2 85 2.9 37.2 5.543 0.218
04:12 1011 29.85 840 24.81 5.1 41.2 85 2.8 37.1 5.515 0.217
04:13 1011 29.85 840 24.81 5.1 41.2 86 2.9 37.2 5.504 0.217
04:14 1011 29.85 840 24.81 5.1 41.1 86 2.9 37.3 5.504 0.217
04:15 1011 29.85 840 24.81 5.1 41.1 86 2.9 37.3 5.487 0.216
04:16 1011 29.85 840 24.81 5.1 41.1 86 2.9 37.3 5.476 0.216
04:17 1011 29.85 840 24.81 5 41.1 85 2.8 37 5.436 0.214
04:18 1011 29.85 840 24.81 5 41 85 2.8 37 5.413 0.213
04:19 1011 29.85 840 24.81 5 41 86 2.8 37.1 5.43 0.214
04:20 1011 29.85 840 24.81 5 41 87 3 37.4 5.436 0.214
04:21 1011 29.85 840 24.81 5 40.9 87 2.9 37.3 5.419 0.213
04:22 1011 29.85 840 24.81 5 40.9 87 2.9 37.3 5.374 0.212
04:23 1011 29.85 840 24.81 5 40.9 87 3 37.3 5.374 0.212
04:24 1011 29.85 840 24.81 4.9 40.9 88 3 37.5 5.347 0.211
04:25 1011 29.85 840 24.81 4.9 40.9 88 3.1 37.5 5.341 0.21
04:26 1011 29.85 840 24.81 4.9 40.8 89 3.2 37.7 5.319 0.209
04:27 1011 29.85 840 24.81 4.9 40.7 89 3.2 37.7 5.319 0.209
04:28 1011 29.85 840 24.81 4.8 40.7 89 3.1 37.6 5.279 0.208
04:29 1011 29.85 840 24.81 4.8 40.6 89 3.1 37.6 5.234 0.206
04:30 1011 29.85 840 24.81 4.7 40.5 89 3.1 37.5 5.167 0.203
04:31 1011 29.85 840 24.81 4.7 40.5 89 3.1 37.5 5.139 0.202
04:32 1011 29.85 840 24.81 4.7 40.4 89 3.1 37.5 5.099 0.201
04:33 1011 29.85 840 24.81 4.6 40.3 89 3 37.4 5.072 0.2
04:34 1011 29.85 840 24.81 4.6 40.3 90 3 37.5 5.032 0.198
04:35 1011 29.85 840 24.81 4.6 40.2 90 3.1 37.5 5.01 0.197
04:36 1011 29.85 840 24.81 4.6 40.2 90 3.1 37.5 5.005 0.197
04:37 1011 29.85 840 24.81 4.5 40.1 90 3.1 37.5 4.988 0.196
04:38 1011 29.85 840 24.81 4.5 40.1 90 3 37.4 4.948 0.195
04:39 1011 29.85 841 24.83 4.4 40 91 3 37.5 4.875 0.192
04:40 1011 29.85 841 24.83 4.4 40 91 3 37.4 4.847 0.191
04:41 1011 29.85 841 24.83 4.4 39.8 90 2.9 37.3 4.819 0.19
04:42 1011 29.85 841 24.83 4.3 39.8 90 2.9 37.1 4.757 0.187
04:43 1011 29.85 841 24.83 4.3 39.7 90 2.8 37.1 4.746 0.187
04:44 1011 29.85 841 24.83 4.3 39.7 90 2.8 37.1 4.689 0.185
04:45 1011 29.85 841 24.83 4.2 39.6 90 2.8 37 4.639 0.183
04:46 1011 29.85 841 24.83 4.2 39.5 90 2.8 37 4.633 0.182
04:47 1011 29.85 841 24.83 4.2 39.5 91 2.8 37 4.611 0.182
04:48 1011 29.85 841 24.83 4.1 39.5 90 2.7 36.9 4.571 0.18
04:49 1011 29.85 841 24.83 4.2 39.5 91 2.8 37 4.6 0.181
04:50 1011 29.85 841 24.83 4.1 39.5 90 2.7 36.9 4.566 0.18
04:51 1011 29.85 841 24.83 4.1 39.4 90 2.7 36.8 4.533 0.178
04:52 1011 29.85 841 24.83 4.1 39.4 90 2.7 36.8 4.55 0.179
04:53 1011 29.85 841 24.83 4.1 39.3 91 2.7 36.9 4.517 0.178
04:54 1012 29.88 841 24.83 4.1 39.4 90 2.6 36.8 4.495 0.177
04:55 1012 29.88 841 24.83 4.1 39.3 91 2.7 36.8 4.495 0.177
04:56 1012 29.88 841 24.83 4 39.3 90 2.6 36.7 4.484 0.177
04:57 1012 29.88 841 24.83 4.1 39.3 90 2.6 36.7 4.434 0.175
04:58 1012 29.88 841 24.83 4 39.2 91 2.6 36.7 4.446 0.175
04:59 1012 29.88 841 24.83 4 39.2 91 2.6 36.8 4.412 0.174
05:00 1012 29.88 841 24.83 4 39.2 91 2.6 36.8 4.429 0.174
05:01 1012 29.88 841 24.83 4 39.1 91 2.6 36.6 4.35 0.171
05:02 1011 29.85 841 24.83 3.9 39 91 2.6 36.6 4.334 0.171
05:03 1011 29.85 841 24.83 3.9 39 91 2.5 36.5 4.294 0.169
05:04 1011 29.85 841 24.83 3.9 39 91 2.6 36.6 4.289 0.169
05:05 1011 29.85 841 24.83 3.8 38.9 91 2.5 36.6 4.227 0.166
05:06 1012 29.88 841 24.83 3.8 38.8 91 2.5 36.5 4.193 0.165
05:07 1012 29.88 841 24.83 3.8 38.8 91 2.5 36.5 4.171 0.164
05:08 1012 29.88 841 24.83 3.7 38.7 91 2.4 36.4 4.148 0.163
05:09 1012 29.88 841 24.83 3.7 38.6 92 2.5 36.4 4.103 0.162
05:10 1012 29.88 841 24.83 3.7 38.6 92 2.5 36.5 4.081 0.161
05:11 1012 29.88 841 24.83 3.6 38.5 92 2.4 36.4 4.047 0.159
05:12 1012 29.88 841 24.83 3.5 38.4 92 2.3 36.2 3.996 0.157
05:13 1012 29.88 841 24.83 3.5 38.4 92 2.4 36.3 3.951 0.156
05:14 1012 29.88 841 24.83 3.5 38.3 93 2.4 36.4 3.945 0.155
05:15 1012 29.88 841 24.83 3.5 38.3 93 2.4 36.4 3.906 0.154
05:16 1012 29.88 841 24.83 3.5 38.2 93 2.4 36.3 3.9 0.154
05:17 1012 29.88 841 24.83 3.5 38.2 93 2.4 36.4 3.855 0.152
05:18 1012 29.88 841 24.83 3.4 38.1 93 2.4 36.3 3.821 0.15
05:19 1012 29.88 841 24.83 3.3 38 93 2.3 36.2 3.77 0.148
05:20 1012 29.88 841 24.83 3.3 38 93 2.4 36.2 3.77 0.148
05:21 1012 29.88 841 24.83 3.3 38 93 2.4 36.2 3.77 0.148
05:22 1012 29.88 841 24.83 3.3 37.9 94 2.4 36.2 3.714 0.146
05:23 1012 29.88 841 24.83 3.2 37.8 94 2.3 36.1 3.691 0.145
05:24 1012 29.88 841 24.83 3.2 37.7 94 2.3 36.1 3.657 0.144
05:25 1012 29.88 841 24.83 3.2 37.8 94 2.3 36.2 3.669 0.144
05:26 1012 29.88 841 24.83 3.2 37.8 94 2.4 36.3 3.663 0.144
05:27 1012 29.88 841 24.83 3.2 37.8 94 2.4 36.3 3.658 0.144
05:28 1012 29.88 841 24.83 3.2 37.7 94 2.4 36.3 3.635 0.143
05:29 1012 29.88 841 24.83 3.1 37.6 94 2.3 36.2 3.652 0.144
05:30 1012 29.88 841 24.83 3.1 37.7 95 2.4 36.3 3.607 0.142
05:31 1012 29.88 841 24.83 3.1 37.7 95 2.4 36.3 3.584 0.141
05:32 1012 29.88 841 24.83 3.1 37.6 95 2.3 36.2 3.562 0.14
05:33 1012 29.88 841 24.83 3.1 37.6 95 2.3 36.2 3.533 0.139
05:34 1012 29.88 841 24.83 3.1 37.6 95 2.4 36.3 3.511 0.138
05:35 1012 29.88 841 24.83 3.1 37.5 95 2.3 36.2 3.516 0.138
05:36 1012 29.88 841 24.83 3.1 37.5 95 2.3 36.2 3.528 0.139
05:37 1012 29.88 841 24.83 3.1 37.5 95 2.3 36.2 3.499 0.138
05:38 1012 29.88 841 24.83 3 37.5 95 2.3 36.1 3.488 0.137
05:39 1012 29.88 841 24.83 3 37.4 95 2.3 36.1 3.449 0.136
05:40 1012 29.88 841 24.83 3 37.4 95 2.3 36.1 3.437 0.135
05:41 1012 29.88 841 24.83 3 37.4 95 2.3 36.1 3.449 0.136
05:42 1012 29.88 841 24.83 3 37.4 95 2.2 36 3.415 0.134
05:43 1012 29.88 841 24.83 3 37.4 95 2.3 36.1 3.426 0.135
05:44 1012 29.88 841 24.83 3 37.4 95 2.2 36 3.42 0.135
05:45 1012 29.88 841 24.83 3 37.4 95 2.3 36.1 3.409 0.134
05:46 1012 29.88 841 24.83 3 37.4 95 2.2 36 3.381 0.133
05:47 1012 29.88 841 24.83 3 37.4 95 2.2 36 3.415 0.134
05:48 1012 29.88 841 24.83 3 37.3 95 2.2 36 3.381 0.133
05:49 1012 29.88 841 24.83 3 37.4 94 2.2 35.9 3.386 0.133
05:50 1012 29.88 841 24.83 3 37.4 94 2.2 35.9 3.375 0.133
05:51 1012 29.88 841 24.83 3 37.4 95 2.2 36 3.392 0.134
05:52 1012 29.88 841 24.83 3 37.4 95 2.2 36 3.437 0.135
05:53 1012 29.88 841 24.83 3 37.3 95 2.2 35.9 3.409 0.134
05:54 1012 29.88 841 24.83 3 37.4 95 2.2 36 3.392 0.134
05:55 1012 29.88 841 24.83 3 37.4 95 2.2 36 3.341 0.132
05:56 1012 29.88 841 24.83 3 37.3 95 2.2 36 3.386 0.133
05:57 1012 29.88 841 24.83 3 37.4 95 2.3 36.1 3.341 0.132
05:58 1012 29.88 841 24.83 3 37.3 95 2.2 36 3.364 0.132
05:59 1012 29.88 841 24.83 3 37.4 95 2.3 36.1 3.364 0.132
06:00 1012 29.88 841 24.83 3 37.4 95 2.3 36.1 3.369 0.133
06:01 1012 29.88 841 24.83 3 37.4 95 2.3 36.1 3.364 0.132
06:02 1012 29.88 841 24.83 3 37.3 95 2.3 36.1 3.369 0.133
06:03 1012 29.88 841 24.83 3 37.4 95 2.3 36.1 3.341 0.132
06:04 1012 29.88 841 24.83 2.9 37.3 95 2.2 36 3.324 0.131
06:05 1012 29.88 841 24.83 2.9 37.3 95 2.2 36 3.296 0.13
06:06 1012 29.88 841 24.83 2.9 37.2 95 2.2 36 3.279 0.129
06:07 1012 29.88 841 24.83 2.9 37.2 95 2.2 35.9 3.256 0.128
06:08 1012 29.88 841 24.83 2.9 37.2 95 2.2 36 3.268 0.129
06:09 1012 29.88 841 24.83 2.9 37.2 95 2.2 36 3.251 0.128
06:10 1012 29.88 841 24.83 2.8 37.1 95 2.2 35.9 3.239 0.128
06:11 1012 29.88 841 24.83 2.8 37.1 96 2.2 36 3.234 0.127
06:12 1012 29.88 841 24.83 2.8 37.1 96 2.2 35.9 3.183 0.125
06:13 1012 29.88 841 24.83 2.8 37 96 2.1 35.9 3.171 0.125
06:14 1012 29.88 841 24.83 2.8 37 96 2.2 35.9 3.16 0.124
06:15 1012 29.88 841 24.83 2.8 37 96 2.1 35.8 3.121 0.123
06:16 1012 29.88 841 24.83 2.7 36.9 95 2 35.7 3.058 0.12
06:17 1012 29.88 841 24.83 2.7 36.9 95 2 35.6 3.047 0.12
06:18 1012 29.88 841 24.83 2.6 36.7 95 2 35.5 2.979 0.117
06:19 1012 29.88 841 24.83 2.6 36.7 96 2 35.6 2.992 0.118
06:20 1012 29.88 841 24.83 2.6 36.6 96 2 35.5 2.941 0.116
06:21 1012 29.88 841 24.83 2.6 36.6 96 2 35.5 2.93 0.115
06:22 1012 29.88 841 24.83 2.5 36.6 96 2 35.5 2.946 0.116
06:23 1012 29.88 841 24.83 2.6 36.6 96 2 35.6 2.918 0.115
06:24 1012 29.88 841 24.83 2.6 36.6 96 2 35.6 2.935 0.116
06:25 1012 29.88 841 24.83 2.6 36.6 96 2 35.6 2.931 0.115
06:26 1012 29.88 841 24.83 2.5 36.5 96 2 35.5 2.925 0.115
06:27 1012 29.88 841 24.83 2.5 36.6 96 2 35.5 2.925 0.115
06:28 1012 29.88 841 24.83 2.5 36.6 96 2 35.6 2.898 0.114
06:29 1012 29.88 841 24.83 2.5 36.5 96 1.9 35.5 2.881 0.113
06:30 1012 29.88 841 24.83 2.5 36.5 96 1.9 35.5 2.892 0.114
06:31 1012 29.88 841 24.83 2.5 36.5 96 2 35.5 2.893 0.114
06:32 1012 29.88 841 24.83 2.5 36.5 96 2 35.5 2.893 0.114
06:33 1012 29.88 841 24.83 2.5 36.4 96 1.9 35.5 2.814 0.111
06:34 1012 29.88 841 24.83 2.5 36.4 96 1.9 35.5 2.871 0.113
06:35 1012 29.88 841 24.83 2.5 36.4 96 1.9 35.5 2.803 0.11
06:36 1012 29.88 841 24.83 2.4 36.4 96 1.9 35.4 2.792 0.11
06:37 1012 29.88 842 24.86 2.4 36.3 96 1.9 35.3 2.775 0.109
06:38 1012 29.88 842 24.86 2.4 36.3 96 1.9 35.4 2.747 0.108
06:39 1012 29.88 841 24.83 2.4 36.3 96 1.9 35.3 2.747 0.108
06:40 1012 29.88 841 24.83 2.3 36.2 96 1.8 35.3 2.742 0.108
06:41 1012 29.88 841 24.83 2.3 36.2 96 1.8 35.2 2.742 0.108
06:42 1012 29.88 841 24.83 2.3 36.1 96 1.8 35.2 2.708 0.107
06:43 1012 29.88 841 24.83 2.3 36.1 96 1.8 35.2 2.646 0.104
06:44 1012 29.88 841 24.83 2.2 36 96 1.7 35.1 2.64 0.104
06:45 1012 29.88 841 24.83 2.2 36 96 1.7 35.1 2.646 0.104
06:46 1012 29.88 841 24.83 2.2 36 97 1.7 35.1 2.572 0.101
06:47 1012 29.88 841 24.83 2.2 35.9 97 1.7 35.1 2.555 0.101
06:48 1012 29.88 842 24.86 2.2 36 97 1.7 35.1 2.578 0.101
06:49 1012 29.88 842 24.86 2.2 35.9 97 1.7 35.1 2.584 0.102
06:50 1012 29.88 841 24.83 2.2 35.9 97 1.7 35.1 2.533 0.1
06:51 1012 29.88 842 24.86 2.2 35.9 97 1.7 35.1 2.573 0.101
06:52 1012 29.88 842 24.86 2.2 35.9 97 1.7 35.1 2.584 0.102
06:53 1012 29.88 842 24.86 2.1 35.8 97 1.7 35.1 2.544 0.1
06:54 1013 29.91 842 24.86 2.1 35.8 97 1.7 35 2.512 0.099
06:55 1013 29.91 842 24.86 2.1 35.8 97 1.7 35 2.523 0.099
06:56 1013 29.91 842 24.86 2.1 35.8 97 1.7 35 2.49 0.098
06:57 1013 29.91 842 24.86 2.1 35.7 97 1.6 34.9 2.462 0.097
06:58 1013 29.91 842 24.86 2.1 35.7 97 1.7 35 2.451 0.096
06:59 1013 29.91 842 24.86 2 35.7 97 1.6 34.9 2.417 0.095
07:00 1013 29.91 842 24.86 2 35.6 97 1.5 34.7 2.379 0.094
07:01 1013 29.91 842 24.86 2 35.6 97 1.6 34.8 2.39 0.094
07:02 1013 29.91 842 24.86 2 35.6 97 1.5 34.7 2.333 0.092
07:03 1013 29.91 842 24.86 2 35.5 97 1.5 34.7 2.3 0.091
07:04 1013 29.91 842 24.86 1.9 35.5 97 1.5 34.7 2.328 0.092
07:05 1013 29.91 842 24.86 1.9 35.4 97 1.5 34.7 2.272 0.089
07:06 1013 29.91 842 24.86 1.9 35.4 97 1.4 34.6 2.267 0.089
07:07 1013 29.91 842 24.86 1.8 35.3 97 1.4 34.4 2.21 0.087
07:08 1013 29.91 842 24.86 1.8 35.3 97 1.4 34.5 2.176 0.086
07:09 1013 29.91 842 24.86 1.8 35.2 97 1.3 34.4 2.092 0.082
07:10 1013 29.91 842 24.86 1.7 35.1 97 1.3 34.3 2.075 0.082
07:11 1013 29.91 842 24.86 1.7 35 97 1.2 34.2 2.086 0.082
07:12 1013 29.91 842 24.86 1.7 35 97 1.2 34.2 2.041 0.08
07:13 1013 29.91 842 24.86 1.6 34.9 97 1.2 34.1 2.024 0.08
07:14 1013 29.91 842 24.86 1.6 34.9 97 1.2 34.2 2.008 0.079
07:15 1013 29.91 842 24.86 1.6 34.9 97 1.2 34.2 1.957 0.077
07:16 1013 29.91 842 24.86 1.6 34.8 97 1.1 34.1 1.94 0.076
07:17 1013 29.91 842 24.86 1.5 34.7 97 1.1 34 1.889 0.074
07:18 1013 29.91 842 24.86 1.5 34.7 97 1.1 33.9 1.861 0.073
07:19 1013 29.91 842 24.86 1.5 34.6 97 1 33.9 1.821 0.072
07:20 1013 29.91 842 24.86 1.4 34.6 97 1 33.8 1.816 0.071
07:21 1013 29.91 842 24.86 1.4 34.6 97 1 33.9 1.804 0.071
07:22 1013 29.91 842 24.86 1.4 34.5 97 1 33.8 1.804 0.071
07:23 1013 29.91 842 24.86 1.4 34.5 97 1 33.7 1.822 0.072
07:24 1013 29.91 842 24.86 1.4 34.5 97 1 33.8 1.765 0.069
07:25 1013 29.91 842 24.86 1.3 34.4 97 0.9 33.7 1.737 0.068
07:26 1013 29.91 842 24.86 1.3 34.4 97 0.9 33.6 1.68 0.066
07:27 1013 29.91 842 24.86 1.2 34.2 97 0.8 33.4 1.59 0.063
07:28 1013 29.91 842 24.86 1.2 34.1 97 0.7 33.3 1.539 0.061
07:29 1013 29.91 842 24.86 1.1 34 97 0.7 33.2 1.477 0.058
07:30 1013 29.91 842 24.86 1 33.9 97 0.6 33 1.397 0.055
07:31 1013 29.91 842 24.86 0.9 33.7 97 0.5 32.9 1.324 0.052
07:32 1013 29.91 842 24.86 0.9 33.6 97 0.4 32.8 1.245 0.049
07:33 1013 29.91 842 24.86 0.8 33.5 97 0.4 32.7 1.182 0.047
07:34 1013 29.91 842 24.86 0.8 33.4 97 0.3 32.6 1.143 0.045
07:35 1013 29.91 843 24.89 0.7 33.2 97 0.3 32.5 1.098 0.043
07:36 1013 29.91 843 24.89 0.6 33.1 97 0.2 32.3 1.018 0.04
07:37 1013 29.91 843 24.89 0.6 33 97 0.1 32.2 .911 0.036
07:38 1013 29.91 843 24.89 0.5 32.9 97 0.1 32.1 .849 0.033
07:39 1013 29.91 843 24.89 0.4 32.7 97 -0 32 .786 0.031
07:40 1013 29.91 843 24.89 0.3 32.6 97 -0.1 31.8 .668 0.026
07:41 1013 29.91 843 24.89 0.2 32.4 97 -0.2 31.7 .605 0.024
07:42 1013 29.91 843 24.89 0.2 32.3 97 -0.2 31.6 .566 0.022
07:43 1013 29.91 843 24.89 0.1 32.2 97 -0.3 31.5 .475 0.019
07:44 1013 29.91 843 24.89 0 32 98 -0.3 31.4 .407 0.016
07:45 1013 29.91 843 24.89 0 32 98 -0.3 31.4 .407 0.016
07:46 1013 29.91 843 24.89 -0.1 31.9 98 -0.4 31.3 .351 0.014
07:47 1013 29.91 843 24.89 -0.1 31.9 98 -0.4 31.3 .339 0.013
07:48 1013 29.91 843 24.89 -0.1 31.8 98 -0.5 31.2 .283 0.011
07:49 1013 29.91 843 24.89 -0.2 31.7 98 -0.5 31.1 .249 0.01
07:50 1013 29.91 843 24.89 -0.2 31.7 98 -0.5 31.1 .277 0.011
07:51 1013 29.91 843 24.89 -0.2 31.6 98 -0.5 31.1 .226 0.009
07:52 1013 29.91 843 24.89 -0.2 31.6 98 -0.5 31.1 .204 0.008
07:53 1013 29.91 843 24.89 -0.2 31.6 98 -0.5 31.1 .198 0.008
07:54 1014 29.94 843 24.89 -0.3 31.5 98 -0.5 31 .215 0.008
07:55 1014 29.94 843 24.89 -0.2 31.6 98 -0.5 31.1 .158 0.006
07:56 1014 29.94 843 24.89 -0.3 31.5 98 -0.5 31 .147 0.006
07:57 1014 29.94 843 24.89 -0.3 31.5 98 -0.5 31 .13 0.005
07:58 1014 29.94 843 24.89 -0.3 31.5 98 -0.5 31.1 .136 0.005
07:59 1014 29.94 843 24.89 -0.3 31.5 98 -0.5 31 .13 0.005
08:00 1014 29.94 843 24.89 -0.3 31.5 98 -0.5 31 .085 0.003
08:01 1014 29.94 843 24.89 -0.3 31.5 98 -0.5 31 .119 0.005
08:02 1014 29.94 843 24.89 -0.3 31.5 98 -0.5 31 .102 0.004
08:03 1014 29.94 843 24.89 -0.3 31.4 98 -0.5 31 .107 0.004
08:04 1014 29.94 843 24.89 -0.3 31.5 98 -0.5 31.1 .119 0.005
08:05 1014 29.94 843 24.89 -0.3 31.5 98 -0.5 31.1 .113 0.004
08:06 1014 29.94 843 24.89 -0.2 31.6 98 -0.5 31.1 .085 0.003
08:07 1014 29.94 843 24.89 -0.3 31.5 98 -0.5 31.1 .125 0.005
08:08 1014 29.94 843 24.89 -0.3 31.5 98 -0.5 31.1 .126 0.005
08:09 1014 29.94 843 24.89 -0.3 31.5 98 -0.5 31.1 .115 0.005
08:10 1014 29.94 843 24.89 -0.3 31.5 98 -0.5 31.1 .114 0.004
08:11 1014 29.94 843 24.89 -0.3 31.5 99 -0.4 31.2 .126 0.005
08:12 1014 29.94 843 24.89 -0.3 31.5 99 -0.5 31.1 .148 0.006
08:13 1014 29.94 843 24.89 -0.2 31.6 99 -0.4 31.2 .155 0.006
08:14 1014 29.94 843 24.89 -0.2 31.6 99 -0.4 31.2 .161 0.006
08:15 1014 29.94 843 24.89 -0.2 31.6 99 -0.5 31.2 .183 0.007
08:16 1014 29.94 843 24.89 -0.3 31.5 99 -0.5 31.1 .195 0.008
08:17 1014 29.94 843 24.89 -0.2 31.6 99 -0.4 31.2 .207 0.008
08:18 1014 29.94 843 24.89 -0.2 31.6 99 -0.4 31.3 .213 0.008
08:19 1014 29.94 843 24.89 -0.2 31.6 99 -0.4 31.2 .208 0.008
08:20 1014 29.94 843 24.89 -0.2 31.6 99 -0.4 31.2 .202 0.008
08:21 1014 29.94 843 24.89 -0.2 31.6 99 -0.4 31.2 .219 0.009
08:22 1014 29.94 843 24.89 -0.2 31.7 99 -0.4 31.3 .242 0.01
08:23 1014 29.94 843 24.89 -0.2 31.7 99 -0.4 31.3 .191 0.008
08:24 1014 29.94 843 24.89 -0.2 31.6 99 -0.4 31.3 .191 0.008
08:25 1014 29.94 843 24.89 -0.2 31.6 99 -0.4 31.3 .209 0.008
08:26 1014 29.94 843 24.89 -0.2 31.7 99 -0.4 31.3 .209 0.008
08:27 1014 29.94 843 24.89 -0.2 31.7 99 -0.4 31.3 .209 0.008
08:28 1014 29.94 843 24.89 -0.2 31.6 99 -0.4 31.3 .192 0.008
08:29 1014 29.94 843 24.89 -0.2 31.6 99 -0.4 31.2 .209 0.008
08:30 1014 29.94 843 24.89 -0.2 31.6 99 -0.4 31.2 .181 0.007
08:31 1014 29.94 843 24.89 -0.2 31.6 99 -0.4 31.2 .187 0.007
08:32 1014 29.94 843 24.89 -0.2 31.6 99 -0.4 31.2 .136 0.005
08:33 1014 29.94 843 24.89 -0.2 31.6 99 -0.5 31.2 .13 0.005
08:34 1014 29.94 844 24.92 -0.2 31.6 99 -0.4 31.2 .159 0.006
08:35 1014 29.94 844 24.92 -0.2 31.6 99 -0.4 31.2 .136 0.005
08:36 1014 29.94 843 24.89 -0.2 31.6 99 -0.5 31.2 .096 0.004
08:37 1014 29.94 843 24.89 -0.2 31.6 99 -0.4 31.2 .148 0.006
08:38 1014 29.94 844 24.92 -0.2 31.6 99 -0.4 31.2 .164 0.006
08:39 1014 29.94 843 24.89 -0.2 31.6 99 -0.4 31.2 .176 0.007
08:40 1014 29.94 844 24.92 -0.2 31.6 99 -0.4 31.2 .199 0.008
08:41 1014 29.94 844 24.92 -0.3 31.5 99 -0.4 31.2 .125 0.005
08:42 1014 29.94 844 24.92 -0.2 31.6 99 -0.4 31.2 .143 0.006
08:43 1014 29.94 844 24.92 -0.3 31.5 99 -0.5 31.2 .127 0.005
08:44 1014 29.94 844 24.92 -0.3 31.5 99 -0.4 31.2 .138 0.005
08:45 1014 29.94 844 24.92 -0.3 31.5 99 -0.5 31.2 .155 0.006
08:46 1014 29.94 844 24.92 -0.3 31.5 99 -0.5 31.1 .133 0.005
08:47 1014 29.94 844 24.92 -0.3 31.5 99 -0.5 31.2 .128 0.005
08:48 1014 29.94 844 24.92 -0.3 31.5 99 -0.5 31.2 .174 0.007
08:49 1014 29.94 844 24.92 -0.3 31.5 99 -0.5 31.2 .14 0.006
08:50 1014 29.94 844 24.92 -0.3 31.5 99 -0.5 31.1 .117 0.005
08:51 1014 29.94 844 24.92 -0.3 31.5 99 -0.5 31.1 .107 0.004
08:52 1014 29.94 844 24.92 -0.3 31.5 99 -0.5 31.1 .107 0.004
08:53 1014 29.94 844 24.92 -0.3 31.5 99 -0.5 31.1 .112 0.004
08:54 1014 29.94 844 24.92 -0.3 31.5 99 -0.5 31.2 .124 0.005
08:55 1015 29.97 844 24.92 -0.3 31.5 99 -0.5 31.1 .13 0.005
08:56 1015 29.97 844 24.92 -0.3 31.5 99 -0.5 31.1 .147 0.006
08:57 1015 29.97 844 24.92 -0.3 31.5 99 -0.5 31.1 .119 0.005
08:58 1015 29.97 844 24.92 -0.3 31.5 99 -0.5 31.1 .114 0.004
08:59 1015 29.97 844 24.92 -0.3 31.5 99 -0.5 31.1 .108 0.004
09:00 1015 29.97 844 24.92 -0.3 31.5 99 -0.5 31.1 .103 0.004
09:01 1015 29.97 844 24.92 -0.3 31.5 99 -0.5 31.1 .137 0.005
09:02 1015 29.97 844 24.92 -0.3 31.5 99 -0.5 31.1 .12 0.005
09:03 1015 29.97 844 24.92 -0.4 31.4 99 -0.5 31 .086 0.003
09:04 1015 29.97 844 24.92 -0.3 31.4 99 -0.5 31.1 .052 0.002
09:05 1015 29.97 844 24.92 -0.3 31.4 99 -0.5 31.1 .092 0.004
09:06 1015 29.97 844 24.92 -0.3 31.4 99 -0.5 31.1 .086 0.003
09:07 1015 29.97 844 24.92 -0.3 31.5 99 -0.5 31.1 .114 0.004
09:08 1015 29.97 844 24.92 -0.3 31.4 99 -0.5 31.1 .075 0.003
09:09 1015 29.97 844 24.92 -0.3 31.4 99 -0.5 31.1 .086 0.003
09:10 1015 29.97 844 24.92 -0.4 31.3 99 -0.5 31 .086 0.003
09:11 1015 29.97 844 24.92 -0.3 31.4 99 -0.5 31.1 .069 0.003
09:12 1015 29.97 844 24.92 -0.3 31.4 99 -0.5 31.1 .07 0.003
09:13 1015 29.97 844 24.92 -0.3 31.5 99 -0.5 31.1 .081 0.003
09:14 1015 29.97 844 24.92 -0.3 31.4 99 -0.5 31.1 .058 0.002
09:15 1015 29.97 844 24.92 -0.3 31.4 99 -0.5 31.1 .087 0.003
09:16 1015 29.97 844 24.92 -0.3 31.4 99 -0.5 31.1 .104 0.004
09:17 1015 29.97 844 24.92 -0.3 31.4 99 -0.5 31.1 .036 0.001
09:18 1015 29.97 844 24.92 -0.3 31.4 99 -0.5 31.1 .092 0.004
09:19 1015 29.97 844 24.92 -0.4 31.4 99 -0.5 31 .064 0.003
09:20 1015 29.97 844 24.92 -0.4 31.4 99 -0.5 31.1 .143 0.006
09:21 1015 29.97 844 24.92 -0.3 31.4 99 -0.5 31.1 .115 0.005
09:22 1015 29.97 844 24.92 -0.3 31.4 99 -0.5 31.1 .059 0.002
09:23 1015 29.97 844 24.92 -0.3 31.4 99 -0.5 31.1 .104 0.004
09:24 1015 29.97 844 24.92 -0.3 31.4 99 -0.5 31.1 .115 0.005
09:25 1015 29.97 844 24.92 -0.3 31.4 99 -0.5 31.2 .081 0.003
09:26 1015 29.97 844 24.92 -0.3 31.4 99 -0.5 31.1 .098 0.004
09:27 1015 29.97 844 24.92 -0.3 31.4 99 -0.5 31.1 .132 0.005
09:28 1015 29.97 844 24.92 -0.3 31.4 99 -0.5 31.1 .11 0.004
09:29 1015 29.97 844 24.92 -0.3 31.4 99 -0.5 31.1 .121 0.005
09:30 1015 29.97 844 24.92 -0.3 31.4 99 -0.5 31.1 .104 0.004
09:31 1015 29.97 844 24.92 -0.3 31.4 99 -0.5 31.1 .087 0.003
09:32 1015 29.97 844 24.92 -0.3 31.4 99 -0.5 31.1 .11 0.004
09:33 1015 29.97 844 24.92 -0.3 31.4 99 -0.5 31.1 .064 0.003
09:34 1015 29.97 844 24.92 -0.3 31.4 99 -0.5 31.1 .081 0.003
09:35 1015 29.97 844 24.92 -0.3 31.4 99 -0.5 31.1 .087 0.003
09:36 1015 29.97 844 24.92 -0.3 31.4 99 -0.5 31.1 .087 0.003
09:37 1015 29.97 844 24.92 -0.4 31.4 99 -0.5 31.1 .053 0.002
09:38 1015 29.97 844 24.92 -0.3 31.4 99 -0.5 31.1 .042 0.002
09:39 1015 29.97 844 24.92 -0.3 31.4 99 -0.5 31.1 .064 0.003
09:40 1015 29.97 844 24.92 -0.3 31.4 99 -0.5 31.1 .07 0.003
09:41 1015 29.97 844 24.92 -0.3 31.4 99 -0.5 31.1 .081 0.003
09:42 1015 29.97 844 24.92 -0.3 31.4 99 -0.5 31.1 .098 0.004
09:43 1015 29.97 844 24.92 -0.3 31.4 99 -0.5 31.1 .104 0.004
09:44 1015 29.97 844 24.92 -0.3 31.4 99 -0.5 31.1 .081 0.003
09:45 1015 29.97 844 24.92 -0.3 31.4 99 -0.5 31.1 .093 0.004
09:46 1015 29.97 844 24.92 -0.3 31.5 99 -0.4 31.2 .093 0.004
09:47 1015 29.97 844 24.92 -0.3 31.5 99 -0.5 31.2 .115 0.005
09:48 1015 29.97 844 24.92 -0.3 31.5 99 -0.4 31.2 .115 0.005
09:49 1015 29.97 844 24.92 -0.3 31.5 99 -0.4 31.3 .104 0.004
09:50 1015 29.97 844 24.92 -0.3 31.5 99 -0.4 31.3 .127 0.005
09:51 1015 29.97 844 24.92 -0.3 31.5 99 -0.4 31.2 .104 0.004
09:52 1015 29.97 844 24.92 -0.3 31.5 99 -0.4 31.3 .115 0.005
09:53 1015 29.97 844 24.92 -0.3 31.5 99 -0.4 31.2 .11 0.004
09:54 1015 29.97 844 24.92 -0.3 31.5 99 -0.4 31.2 .081 0.003
09:55 1015 29.97 844 24.92 -0.2 31.6 99 -0.4 31.3 .149 0.006
09:56 1015 29.97 844 24.92 -0.3 31.5 99 -0.4 31.3 .144 0.006
09:57 1015 29.97 844 24.92 -0.2 31.6 99 -0.4 31.3 .178 0.007
09:58 1015 29.97 844 24.92 -0.2 31.6 99 -0.4 31.3 .149 0.006
09:59 1015 29.97 844 24.92 -0.3 31.5 99 -0.4 31.3 .172 0.007
10:00 1015 29.97 844 24.92 -0.2 31.6 99 -0.4 31.3 .121 0.005
10:01 1015 29.97 844 24.92 -0.3 31.5 99 -0.4 31.3 .132 0.005
10:02 1015 29.97 844 24.92 -0.2 31.6 99 -0.4 31.3 .161 0.006
10:03 1015 29.97 844 24.92 -0.2 31.6 99 -0.4 31.3 .178 0.007
10:04 1015 29.97 844 24.92 -0.2 31.6 99 -0.4 31.3 .155 0.006
10:05 1015 29.97 844 24.92 -0.2 31.6 99 -0.4 31.3 .172 0.007
10:06 1015 29.97 844 24.92 -0.2 31.6 99 -0.4 31.3 .172 0.007
10:07 1015 29.97 844 24.92 -0.2 31.6 99 -0.3 31.4 .172 0.007
10:08 1015 29.97 844 24.92 -0.2 31.6 99 -0.3 31.4 .144 0.006
10:09 1015 29.97 844 24.92 -0.2 31.6 99 -0.3 31.4 .144 0.006
10:10 1015 29.97 844 24.92 -0.2 31.7 99 -0.3 31.4 .155 0.006
10:11 1015 29.97 844 24.92 -0.2 31.7 99 -0.3 31.5 .206 0.008
10:12 1015 29.97 844 24.92 -0.2 31.7 99 -0.3 31.5 .178 0.007
10:13 1015 29.97 844 24.92 -0.2 31.7 99 -0.3 31.5 .2 0.008
10:14 1015 29.97 844 24.92 -0.1 31.8 99 -0.3 31.5 .206 0.008
10:15 1015 29.97 844 24.92 -0.2 31.7 99 -0.3 31.5 .189 0.007
10:16 1015 29.97 844 24.92 -0.1 31.8 99 -0.3 31.5 .172 0.007
10:17 1015 29.97 844 24.92 -0.2 31.7 99 -0.3 31.5 .195 0.008
10:18 1015 29.97 844 24.92 -0.1 31.7 99 -0.3 31.5 .223 0.009
10:19 1015 29.97 844 24.92 -0.2 31.7 99 -0.3 31.5 .178 0.007
10:20 1015 29.97 844 24.92 -0.2 31.7 99 -0.3 31.5 .24 0.009
10:21 1015 29.97 844 24.92 -0.1 31.8 99 -0.2 31.6 .251 0.01
10:22 1015 29.97 844 24.92 -0.1 31.8 99 -0.2 31.6 .234 0.009
10:23 1015 29.97 844 24.92 -0.1 31.8 99 -0.2 31.6 .251 0.01
10:24 1015 29.97 844 24.92 -0.1 31.9 99 -0.2 31.6 .274 0.011
10:25 1015 29.97 844 24.92 -0.1 31.9 99 -0.2 31.6 .314 0.012
10:26 1015 29.97 844 24.92 -0 32 99 -0.2 31.7 .314 0.012
10:27 1015 29.97 844 24.92 -0 31.9 99 -0.2 31.7 .314 0.012
10:28 1015 29.97 844 24.92 -0 32 99 -0.1 31.8 .387 0.015
10:29 1015 29.97 844 24.92 0 32.1 99 -0.1 31.8 .325 0.013
10:30 1015 29.97 844 24.92 0 32 99 -0.1 31.8 .359 0.014
10:31 1015 29.97 844 24.92 0 32.1 99 -0.1 31.9 .399 0.016
10:32 1015 29.97 844 24.92 0.1 32.1 99 -0.1 31.8 .393 0.015
10:33 1015 29.97 844 24.92 0.1 32.1 99 -0.1 31.9 .416 0.016
10:34 1015 29.97 844 24.92 0.1 32.1 99 -0.1 31.9 .421 0.017
10:35 1015 29.97 844 24.92 0.1 32.1 99 -0 31.9 .432 0.017
10:36 1015 29.97 844 24.92 0.1 32.2 99 -0 32 .432 0.017
10:37 1015 29.97 844 24.92 0.1 32.2 99 -0 32 .449 0.018
10:38 1015 29.97 844 24.92 0.1 32.2 99 -0 31.9 .461 0.018
10:39 1015 29.97 844 24.92 0.1 32.1 99 -0.1 31.9 .455 0.018
10:40 1015 29.97 844 24.92 0.1 32.1 99 -0.1 31.9 .421 0.017
10:41 1015 29.97 844 24.92 0.1 32.1 99 -0.1 31.9 .416 0.016
10:42 1015 29.97 844 24.92 0.1 32.1 99 -0.1 31.9 .444 0.017
10:43 1015 29.97 844 24.92 0.1 32.2 99 -0 31.9 .461 0.018
10:44 1015 29.97 844 24.92 0.1 32.1 99 -0.1 31.9 .455 0.018
10:45 1015 29.97 844 24.92 0.1 32.2 99 -0 31.9 .466 0.018
10:46 1015 29.97 844 24.92 0.1 32.2 99 -0 31.9 .444 0.017
10:47 1015 29.97 844 24.92 0.1 32.2 99 -0 32 .483 0.019
10:48 1015 29.97 844 24.92 0.1 32.3 99 0 32 .472 0.019
10:49 1015 29.97 844 24.92 0.1 32.2 99 -0 31.9 .489 0.019
10:50 1015 29.97 844 24.92 0.1 32.2 99 -0 32 .472 0.019
10:51 1015 29.97 844 24.92 0.1 32.2 99 -0 32 .449 0.018
10:52 1015 29.97 844 24.92 0.1 32.2 99 -0 31.9 .314 0.012
10:53 1015 29.97 844 24.92 0.1 32.2 99 -0 31.9 .342 0.013
10:54 1015 29.97 844 24.92 0.1 32.1 99 -0.1 31.9 .274 0.011
10:55 1015 29.97 844 24.92 0.1 32.1 99 -0.1 31.9 .246 0.01
10:56 1015 29.97 844 24.92 0 32.1 99 -0.1 31.8 .285 0.011
10:57 1015 29.97 844 24.92 0.1 32.1 99 -0.1 31.8 .223 0.009
10:58 1015 29.97 844 24.92 0 32.1 99 -0.1 31.8 .217 0.009
10:59 1015 29.97 844 24.92 0 32 99 -0.1 31.8 .223 0.009
11:00 1015 29.97 844 24.92 -0 32 99 -0.2 31.7 .223 0.009
11:01 1015 29.97 844 24.92 -0 32 99 -0.2 31.7 .195 0.008
11:02 1015 29.97 844 24.92 -0.1 31.9 99 -0.2 31.6 .178 0.007
11:03 1015 29.97 844 24.92 -0.1 31.8 99 -0.3 31.5 .229 0.009
11:04 1015 29.97 844 24.92 -0.2 31.7 99 -0.3 31.4 .189 0.007
11:05 1015 29.97 844 24.92 -0.2 31.7 99 -0.3 31.4 .206 0.008
11:06 1015 29.97 844 24.92 -0.2 31.7 99 -0.3 31.4 .223 0.009
11:07 1015 29.97 844 24.92 -0.2 31.6 99 -0.3 31.4 .183 0.007
11:08 1015 29.97 844 24.92 -0.2 31.7 99 -0.3 31.4 .183 0.007
11:09 1015 29.97 844 24.92 -0.2 31.6 99 -0.4 31.4 .195 0.008
11:10 1015 29.97 844 24.92 -0.2 31.6 99 -0.4 31.4 .217 0.009
11:11 1015 29.97 844 24.92 -0.2 31.6 99 -0.4 31.4 .223 0.009
11:12 1015 29.97 844 24.92 -0.2 31.6 99 -0.4 31.3 .229 0.009
11:13 1015 29.97 844 24.92 -0.2 31.7 99 -0.3 31.4 .212 0.008
11:14 1015 29.97 844 24.92 -0.2 31.7 99 -0.3 31.4 .229 0.009
11:15 1015 29.97 844 24.92 -0.2 31.7 99 -0.3 31.5 .234 0.009
11:16 1015 29.97 844 24.92 -0.2 31.7 99 -0.3 31.4 .263 0.01
11:17 1015 29.97 844 24.92 -0.2 31.7 99 -0.3 31.5 .263 0.01
11:18 1015 29.97 844 24.92 -0.2 31.7 99 -0.3 31.5 .285 0.011
11:19 1015 29.97 844 24.92 -0.2 31.7 99 -0.3 31.5 .268 0.011
11:20 1015 29.97 844 24.92 -0.1 31.9 99 -0.2 31.6 .319 0.013
11:21 1015 29.97 844 24.92 -0.1 31.9 99 -0.2 31.6 .331 0.013
11:22 1015 29.97 844 24.92 -0.1 31.9 99 -0.2 31.6 .348 0.014
11:23 1015 29.97 844 24.92 -0.1 31.8 99 -0.2 31.6 .308 0.012
11:24 1015 29.97 844 24.92 -0.1 31.8 99 -0.2 31.6 .319 0.013
11:25 1015 29.97 844 24.92 -0.1 31.9 99 -0.2 31.6 .348 0.014
11:26 1015 29.97 844 24.92 -0.1 31.8 99 -0.2 31.6 .393 0.015
11:27 1015 29.97 844 24.92 -0.1 31.8 99 -0.2 31.6 .376 0.015
11:28 1015 29.97 844 24.92 -0 31.9 99 -0.2 31.6 .376 0.015
11:29 1015 29.97 844 24.92 -0 31.9 99 -0.2 31.7 .382 0.015
11:30 1015 29.97 844 24.92 -0 32 99 -0.2 31.7 .421 0.017
11:31 1015 29.97 844 24.92 0 32 99 -0.1 31.7 .438 0.017
11:32 1015 29.97 844 24.92 -0 32 99 -0.2 31.7 .444 0.017
11:33 1015 29.97 844 24.92 0 32 99 -0.2 31.7 .416 0.016
11:34 1015 29.97 844 24.92 0 32 99 -0.1 31.8 .421 0.017
11:35 1015 29.97 844 24.92 -0 32 99 -0.2 31.7 .449 0.018
11:36 1015 29.97 845 24.95 -0 31.9 99 -0.2 31.7 .404 0.016
11:37 1015 29.97 845 24.95 -0 31.9 99 -0.2 31.7 .438 0.017
11:38 1015 29.97 845 24.95 -0 32 99 -0.2 31.7 .432 0.017
11:39 1015 29.97 845 24.95 -0 32 99 -0.2 31.7 .41 0.016
11:40 1015 29.97 845 24.95 -0 32 99 -0.2 31.7 .461 0.018
11:41 1015 29.97 845 24.95 -0 32 99 -0.2 31.7 .432 0.017
11:42 1015 29.97 845 24.95 -0 31.9 99 -0.2 31.6 .404 0.016
11:43 1015 29.97 845 24.95 -0.1 31.9 99 -0.2 31.6 .416 0.016
11:44 1016 30 845 24.95 -0 31.9 99 -0.2 31.6 .387 0.015
11:45 1016 30 845 24.95 -0.1 31.9 99 -0.2 31.6 .41 0.016
11:46 1016 30 845 24.95 -0 31.9 99 -0.2 31.6 .399 0.016
11:47 1016 30 845 24.95 -0 31.9 99 -0.2 31.6 .444 0.017
11:48 1016 30 845 24.95 -0 31.9 99 -0.2 31.7 .438 0.017
11:49 1016 30 845 24.95 -0 32 99 -0.2 31.7 .416 0.016
11:50 1016 30 845 24.95 -0 32 99 -0.2 31.7 .416 0.016
11:51 1015 29.97 845 24.95 0 32 99 -0.1 31.7 .432 0.017
11:52 1016 30 845 24.95 -0 31.9 99 -0.2 31.7 .416 0.016
11:53 1016 30 845 24.95 -0 32 99 -0.2 31.7 .432 0.017
11:54 1016 30 845 24.95 0 32 99 -0.1 31.7 .449 0.018
11:55 1016 30 845 24.95 0 32 99 -0.2 31.7 .483 0.019
11:56 1016 30 845 24.95 -0 32 99 -0.2 31.7 .432 0.017
11:57 1016 30 845 24.95 0 32 99 -0.2 31.7 .455 0.018
11:58 1016 30 845 24.95 -0 32 99 -0.2 31.7 .483 0.019
11:59 1016 30 845 24.95 -0 31.9 99 -0.2 31.6 .41 0.016
12:00 1016 30 845 24.95 0 32 99 -0.2 31.7 .472 0.019
12:01 1016 30 845 24.95 0 32 99 -0.1 31.8 .438 0.017
12:02 1016 30 845 24.95 0 32 99 -0.2 31.7 .461 0.018
12:03 1016 30 845 24.95 -0 32 99 -0.2 31.7 .472 0.019
12:04 1016 30 845 24.95 0 32 99 -0.1 31.7 .449 0.018
12:05 1016 30 845 24.95 0 32.1 99 -0.1 31.8 .489 0.019
12:06 1016 30 845 24.95 0.1 32.1 99 -0.1 31.8 .529 0.021
12:07 1016 30 845 24.95 0.1 32.2 99 -0.1 31.9 .5 0.02
12:08 1016 30 845 24.95 0.1 32.2 99 -0.1 31.9 .517 0.02
12:09 1016 30 845 24.95 0.1 32.2 99 -0.1 31.9 .506 0.02
12:10 1016 30 845 24.95 0.1 32.2 99 -0.1 31.9 .534 0.021
12:11 1016 30 845 24.95 0.1 32.3 99 -0 31.9 .58 0.023
12:12 1016 30 845 24.95 0.2 32.3 99 -0 32 .608 0.024
12:13 1016 30 845 24.95 0.2 32.4 99 0 32.1 .608 0.024
12:14 1016 30 845 24.95 0.2 32.4 99 0 32 .602 0.024
12:15 1016 30 845 24.95 0.2 32.4 99 0.1 32.1 .648 0.026
12:16 1016 30 845 24.95 0.3 32.5 99 0.1 32.1 .693 0.027
12:17 1016 30 845 24.95 0.3 32.5 99 0.1 32.1 .699 0.028
12:18 1016 30 845 24.95 0.3 32.6 99 0.1 32.2 .733 0.029
12:19 1016 30 845 24.95 0.3 32.6 98 0.1 32.2 .767 0.03
12:20 1016 30 845 24.95 0.3 32.6 98 0.1 32.2 .755 0.03
12:21 1016 30 845 24.95 0.4 32.7 98 0.1 32.3 .772 0.03
12:22 1016 30 845 24.95 0.4 32.7 98 0.1 32.3 .8 0.031
12:23 1016 30 845 24.95 0.4 32.7 98 0.1 32.3 .84 0.033
12:24 1016 30 845 24.95 0.4 32.7 98 0.1 32.2 .823 0.032
12:25 1016 30 845 24.95 0.4 32.7 98 0.1 32.2 .812 0.032
12:26 1016 30 845 24.95 0.4 32.7 98 0.1 32.2 .863 0.034
12:27 1016 30 845 24.95 0.5 32.8 98 0.2 32.3 .868 0.034
12:28 1016 30 845 24.95 0.4 32.8 98 0.2 32.3 .88 0.035
12:29 1016 30 845 24.95 0.4 32.8 98 0.2 32.3 .857 0.034
12:30 1016 30 845 24.95 0.5 32.8 98 0.2 32.3 .908 0.036
12:31 1016 30 845 24.95 0.5 32.9 98 0.2 32.3 .908 0.036
12:32 1016 30 845 24.95 0.5 32.8 98 0.1 32.3 .897 0.035
12:33 1016 30 845 24.95 0.5 32.9 98 0.2 32.3 .925 0.036
12:34 1016 30 845 24.95 0.4 32.8 98 0.1 32.2 .914 0.036
12:35 1016 30 845 24.95 0.5 32.8 98 0.1 32.2 .88 0.035
12:36 1016 30 845 24.95 0.5 32.9 98 0.1 32.3 .885 0.035
12:37 1016 30 845 24.95 0.5 32.9 98 0.1 32.3 .897 0.035
12:38 1016 30 845 24.95 0.5 32.8 98 0.1 32.3 .919 0.036
12:39 1016 30 845 24.95 0.5 32.9 98 0.2 32.3 .931 0.037
12:40 1016 30 845 24.95 0.5 32.9 98 0.2 32.3 .919 0.036
12:41 1016 30 845 24.95 0.5 32.9 98 0.2 32.3 .948 0.037
12:42 1016 30 845 24.95 0.6 33 98 0.2 32.4 .97 0.038
12:43 1016 30 845 24.95 0.5 32.9 98 0.2 32.3 .953 0.038
12:44 1016 30 845 24.95 0.5 33 98 0.2 32.3 .931 0.037
12:45 1016 30 845 24.95 0.6 33 97 0.2 32.4 .982 0.039
12:46 1016 30 845 24.95 0.6 33 97 0.2 32.3 .993 0.039
12:47 1016 30 845 24.95 0.6 33.1 97 0.2 32.4 1.016 0.04
12:48 1016 30 845 24.95 0.6 33.1 97 0.2 32.4 1.021 0.04
12:49 1016 30 845 24.95 0.6 33.2 97 0.2 32.4 1.021 0.04
12:50 1016 30 845 24.95 0.6 33.1 97 0.2 32.4 1.016 0.04
12:51 1016 30 845 24.95 0.6 33.1 97 0.2 32.4 1.061 0.042
12:52 1016 30 845 24.95 0.6 33.2 97 0.2 32.4 1.084 0.043
12:53 1016 30 845 24.95 0.6 33.1 97 0.2 32.4 1.044 0.041
12:54 1016 30 845 24.95 0.6 33.1 97 0.2 32.3 1.055 0.042
12:55 1016 30 845 24.95 0.6 33.2 97 0.2 32.3 1.038 0.041
12:56 1016 30 845 24.95 0.7 33.2 97 0.2 32.4 1.038 0.041
12:57 1016 30 845 24.95 0.7 33.2 97 0.2 32.4 1.089 0.043
12:58 1016 30 845 24.95 0.7 33.2 97 0.2 32.4 1.089 0.043
12:59 1016 30 845 24.95 0.6 33.1 97 0.2 32.4 1.078 0.042
13:00 1016 30 845 24.95 0.7 33.2 97 0.2 32.4 1.123 0.044
13:01 1016 30 845 24.95 0.6 33.2 97 0.2 32.4 1.072 0.042
13:02 1016 30 845 24.95 0.6 33.1 97 0.2 32.4 1.123 0.044
13:03 1016 30 845 24.95 0.6 33.1 97 0.2 32.4 1.067 0.042
13:04 1016 30 845 24.95 0.6 33.1 97 0.2 32.4 1.033 0.041
13:05 1016 30 845 24.95 0.6 33.1 97 0.2 32.4 1.01 0.04
13:06 1016 30 845 24.95 0.6 33.1 97 0.2 32.4 1.05 0.041
13:07 1016 30 845 24.95 0.6 33.2 97 0.3 32.5 1.044 0.041
13:08 1016 30 845 24.95 0.6 33.1 97 0.3 32.5 1.05 0.041
13:09 1016 30 845 24.95 0.6 33.1 97 0.3 32.5 1.033 0.041
13:10 1016 30 845 24.95 0.6 33.1 97 0.3 32.5 1.05 0.041
13:11 1016 30 845 24.95 0.6 33.2 98 0.3 32.5 1.044 0.041
13:12 1016 30 845 24.95 0.6 33.2 98 0.3 32.5 1.061 0.042
13:13 1016 30 845 24.95 0.6 33.1 98 0.3 32.5 1.067 0.042
13:14 1016 30 845 24.95 0.6 33.1 98 0.3 32.5 1.061 0.042
13:15 1016 30 845 24.95 0.6 33.1 97 0.2 32.4 1.033 0.041
13:16 1016 30 845 24.95 0.5 33 97 0.2 32.3 .993 0.039
13:17 1016 30 845 24.95 0.5 33 98 0.2 32.3 .993 0.039
13:18 1016 30 845 24.95 0.5 33 98 0.2 32.4 1.01 0.04
13:19 1016 30 845 24.95 0.5 33 98 0.2 32.4 .993 0.039
13:20 1016 30 845 24.95 0.5 33 98 0.2 32.4 .982 0.039
13:21 1016 30 845 24.95 0.5 32.9 98 0.2 32.3 .982 0.039
13:22 1016 30 845 24.95 0.5 33 98 0.2 32.4 .987 0.039
13:23 1016 30 845 24.95 0.5 32.9 98 0.1 32.3 .948 0.037
13:24 1016 30 845 24.95 0.5 32.9 98 0.2 32.3 .919 0.036
13:25 1016 30 845 24.95 0.5 32.9 98 0.2 32.3 .908 0.036
13:26 1016 30 845 24.95 0.4 32.8 98 0.1 32.2 .908 0.036
13:27 1016 30 845 24.95 0.5 32.8 98 0.1 32.2 .823 0.032
13:28 1016 30 845 24.95 0.5 32.8 98 0.1 32.3 .88 0.035
13:29 1016 30 845 24.95 0.4 32.8 98 0.1 32.2 .868 0.034
13:30 1016 30 845 24.95 0.5 32.8 98 0.1 32.2 .902 0.036
13:31 1016 30 845 24.95 0.5 32.9 98 0.2 32.3 .908 0.036
13:32 1016 30 845 24.95 0.5 32.9 98 0.2 32.3 .953 0.038
13:33 1016 30 845 24.95 0.5 33 98 0.2 32.4 .953 0.038
13:34 1016 30 845 24.95 0.6 33.1 98 0.3 32.5 .987 0.039
13:35 1016 30 845 24.95 0.6 33.1 98 0.3 32.5 1.055 0.042
13:36 1016 30 845 24.95 0.7 33.2 97 0.3 32.6 1.095 0.043
13:37 1016 30 845 24.95 0.7 33.2 97 0.3 32.5 1.101 0.043
13:38 1016 30 845 24.95 0.7 33.2 97 0.3 32.6 1.146 0.045
13:39 1016 30 845 24.95 0.7 33.3 97 0.3 32.6 1.123 0.044
13:40 1016 30 845 24.95 0.7 33.3 97 0.3 32.6 1.174 0.046
13:41 1016 30 845 24.95 0.8 33.4 97 0.4 32.7 1.174 0.046
13:42 1016 30 845 24.95 0.7 33.3 97 0.3 32.6 1.191 0.047
13:43 1016 30 845 24.95 0.7 33.3 97 0.3 32.5 1.174 0.046
13:44 1016 30 845 24.95 0.8 33.4 97 0.3 32.5 1.146 0.045
13:45 1016 30 845 24.95 0.8 33.4 97 0.3 32.5 1.157 0.046
13:46 1016 30 845 24.95 0.7 33.3 97 0.3 32.5 1.168 0.046
13:47 1016 30 845 24.95 0.7 33.3 97 0.2 32.4 1.134 0.045
13:48 1016 30 845 24.95 0.7 33.3 97 0.2 32.4 1.14 0.045
13:49 1016 30 845 24.95 0.7 33.2 97 0.2 32.4 1.14 0.045
13:50 1016 30 845 24.95 0.7 33.3 97 0.3 32.5 1.118 0.044
13:51 1016 30 845 24.95 0.7 33.3 97 0.3 32.5 1.112 0.044
13:52 1016 30 845 24.95 0.7 33.3 97 0.3 32.5 1.129 0.044
13:53 1016 30 845 24.95 0.7 33.3 97 0.2 32.4 1.129 0.044
13:54 1016 30 845 24.95 0.7 33.2 97 0.2 32.4 1.129 0.044
13:55 1016 30 845 24.95 0.7 33.3 97 0.3 32.5 1.134 0.045
13:56 1016 30 845 24.95 0.7 33.3 97 0.3 32.5 1.146 0.045
13:57 1016 30 845 24.95 0.7 33.3 97 0.3 32.5 1.146 0.045
13:58 1016 30 845 24.95 0.7 33.2 97 0.3 32.5 1.146 0.045
13:59 1016 30 845 24.95 0.7 33.2 97 0.2 32.4 1.118 0.044
14:00 1016 30 845 24.95 0.7 33.2 97 0.2 32.4 1.061 0.042
14:01 1016 30 845 24.95 0.6 33 97 0.2 32.3 1.033 0.041
14:02 1016 30 845 24.95 0.5 33 97 0.1 32.3 .999 0.039
14:03 1016 30 845 24.95 0.5 32.9 97 0.1 32.2 .885 0.035
14:04 1016 30 845 24.95 0.4 32.7 97 0.1 32.1 .908 0.036
14:05 1016 30 845 24.95 0.4 32.7 97 0 32.1 .823 0.032
14:06 1016 30 845 24.95 0.3 32.5 97 -0.1 31.9 .744 0.029
14:07 1016 30 846 24.98 0.3 32.5 98 -0 31.9 .71 0.028
14:08 1016 30 846 24.98 0.3 32.5 98 -0.1 31.9 .676 0.027
14:09 1016 30 846 24.98 0.2 32.4 98 -0.1 31.8 .614 0.024
14:10 1016 30 846 24.98 0.2 32.3 98 -0.1 31.8 .619 0.024
14:11 1016 30 846 24.98 0.2 32.3 98 -0.1 31.8 .585 0.023
14:12 1016 30 846 24.98 0.1 32.3 98 -0.1 31.7 .568 0.022
14:13 1016 30 846 24.98 0.1 32.2 98 -0.2 31.7 .563 0.022
14:14 1016 30 846 24.98 0.1 32.2 98 -0.2 31.7 .568 0.022
14:15 1016 30 846 24.98 0.1 32.2 98 -0.2 31.7 .529 0.021
14:16 1016 30 846 24.98 0.1 32.2 98 -0.1 31.8 .512 0.02
14:17 1016 30 846 24.98 0.1 32.2 98 -0.1 31.7 .546 0.021
14:18 1016 30 846 24.98 0.1 32.2 98 -0.1 31.8 .54 0.021
14:19 1016 30 846 24.98 0.1 32.2 98 -0.1 31.8 .523 0.021
14:20 1017 30.03 846 24.98 0.1 32.3 98 -0.1 31.9 .614 0.024
14:21 1017 30.03 846 24.98 0.2 32.4 98 -0 31.9 .631 0.025
14:22 1017 30.03 846 24.98 0.2 32.4 98 -0 32 .619 0.024
14:23 1017 30.03 846 24.98 0.2 32.4 98 -0 31.9 .676 0.027
14:24 1017 30.03 846 24.98 0.2 32.4 98 0 32 .653 0.026
14:25 1017 30.03 846 24.98 0.2 32.4 98 -0 32 .619 0.024
14:26 1017 30.03 846 24.98 0.2 32.4 98 0 32 .682 0.027
14:27 1017 30.03 846 24.98 0.2 32.4 98 0 32 .631 0.025
14:28 1017 30.03 846 24.98 0.3 32.5 98 0 32 .67 0.026
14:29 1017 30.03 846 24.98 0.2 32.4 98 -0 32 .631 0.025
14:30 1017 30.03 846 24.98 0.2 32.4 98 -0 32 .659 0.026
14:31 1017 30.03 846 24.98 0.3 32.5 98 0 32 .648 0.026
14:32 1017 30.03 846 24.98 0.2 32.4 98 -0 32 .619 0.024
14:33 1017 30.03 846 24.98 0.2 32.3 98 -0.1 31.9 .636 0.025
14:34 1017 30.03 846 24.98 0.2 32.3 98 -0 31.9 .574 0.023
14:35 1017 30.03 846 24.98 0.2 32.3 98 -0.1 31.9 .574 0.023
14:36 1017 30.03 846 24.98 0.2 32.4 98 -0 32 .619 0.024
14:37 1017 30.03 846 24.98 0.2 32.3 98 -0.1 31.9 .631 0.025
14:38 1017 30.03 846 24.98 0.2 32.4 98 -0 32 .619 0.024
14:39 1017 30.03 846 24.98 0.2 32.3 98 -0.1 31.9 .631 0.025
14:40 1017 30.03 846 24.98 0.1 32.3 98 -0.1 31.9 .591 0.023
14:41 1017 30.03 846 24.98 0.1 32.2 98 -0.1 31.8 .546 0.021
14:42 1017 30.03 846 24.98 0.1 32.2 98 -0.1 31.8 .523 0.021
14:43 1017 30.03 846 24.98 0.1 32.2 98 -0.1 31.8 .517 0.02
14:44 1017 30.03 846 24.98 0.1 32.2 98 -0.1 31.8 .529 0.021
14:45 1017 30.03 846 24.98 0.1 32.2 98 -0.1 31.8 .557 0.022
14:46 1017 30.03 846 24.98 0.1 32.2 99 -0.1 31.9 .54 0.021
14:47 1017 30.03 846 24.98 0.2 32.3 99 -0 32 .585 0.023
14:48 1017 30.03 846 24.98 0.2 32.3 99 -0 31.9 .619 0.024
14:49 1017 30.03 846 24.98 0.2 32.4 99 0 32 .631 0.025
14:50 1017 30.03 846 24.98 0.2 32.4 99 0 32.1 .648 0.026
14:51 1017 30.03 846 24.98 0.3 32.5 99 0.1 32.1 .687 0.027
14:52 1017 30.03 846 24.98 0.3 32.5 99 0.1 32.1 .744 0.029
14:53 1017 30.03 846 24.98 0.3 32.5 99 0.1 32.1 .75 0.03
14:54 1017 30.03 846 24.98 0.3 32.6 99 0.1 32.2 .761 0.03
14:55 1017 30.03 846 24.98 0.3 32.6 98 0.1 32.2 .738 0.029
14:56 1017 30.03 846 24.98 0.3 32.6 98 0.1 32.2 .716 0.028
14:57 1017 30.03 846 24.98 0.3 32.5 98 0.1 32.1 .755 0.03
14:58 1017 30.03 846 24.98 0.3 32.6 98 0.1 32.2 .716 0.028
14:59 1017 30.03 846 24.98 0.3 32.5 98 0.1 32.1 .676 0.027
15:00 1017 30.03 846 24.98 0.3 32.5 98 0.1 32.1 .733 0.029
15:01 1017 30.03 846 24.98 0.3 32.5 98 0.1 32.1 .733 0.029
15:02 1017 30.03 846 24.98 0.3 32.5 98 0.1 32.1 .71 0.028
15:03 1017 30.03 846 24.98 0.3 32.5 98 0.1 32.1 .687 0.027
15:04 1017 30.03 846 24.98 0.3 32.5 98 0 32 .687 0.027
15:05 1017 30.03 846 24.98 0.2 32.4 98 0 32 .614 0.024
15:06 1017 30.03 846 24.98 0.2 32.3 98 -0 31.9 .602 0.024
15:07 1017 30.03 846 24.98 0.2 32.3 98 -0.1 31.9 .591 0.023
15:08 1017 30.03 846 24.98 0.2 32.3 98 -0.1 31.9 .534 0.021
15:09 1017 30.03 846 24.98 0.2 32.3 98 -0.1 31.9 .529 0.021
15:10 1017 30.03 846 24.98 0.1 32.3 99 -0.1 31.9 .534 0.021
15:11 1017 30.03 846 24.98 0.1 32.2 99 -0.1 31.9 .529 0.021
15:12 1017 30.03 846 24.98 0.2 32.3 99 -0 32 .585 0.023
15:13 1017 30.03 846 24.98 0.2 32.4 99 -0 32 .597 0.024
15:14 1017 30.03 846 24.98 0.3 32.5 99 0.1 32.2 .676 0.027
15:15 1017 30.03 846 24.98 0.4 32.7 99 0.2 32.3 .778 0.031
15:16 1017 30.03 846 24.98 0.4 32.7 99 0.2 32.3 .795 0.031
15:17 1017 30.03 846 24.98 0.4 32.7 98 0.2 32.3 .812 0.032
15:18 1017 30.03 846 24.98 0.4 32.7 98 0.2 32.3 .817 0.032
15:19 1017 30.03 846 24.98 0.4 32.8 99 0.2 32.4 .829 0.033
15:20 1017 30.03 846 24.98 0.4 32.8 98 0.2 32.4 .846 0.033
15:21 1017 30.03 846 24.98 0.5 32.8 98 0.2 32.4 .857 0.034
15:22 1017 30.03 846 24.98 0.5 32.8 98 0.2 32.4 .874 0.034
15:23 1017 30.03 846 24.98 0.4 32.8 98 0.2 32.4 .84 0.033
15:24 1017 30.03 846 24.98 0.4 32.8 98 0.2 32.4 .851 0.034
15:25 1017 30.03 846 24.98 0.4 32.8 98 0.2 32.4 .823 0.032
15:26 1017 30.03 846 24.98 0.4 32.8 98 0.2 32.4 .846 0.033
15:27 1017 30.03 846 24.98 0.5 33 99 0.4 32.6 .965 0.038
15:28 1017 30.03 846 24.98 0.8 33.4 99 0.6 33.1 1.214 0.048
15:29 1017 30.03 846 24.98 1.1 33.9 99 0.9 33.6 1.406 0.055
15:30 1017 30.03 846 24.98 1.2 34.1 99 1 33.7 1.604 0.063
15:31 1017 30.03 846 24.98 1.3 34.3 98 1 33.9 1.633 0.064
15:32 1017 30.03 846 24.98 1.3 34.4 98 1 33.9 1.712 0.067
15:33 1017 30.03 846 24.98 1.2 34.2 98 0.9 33.6 1.616 0.064
15:34 1017 30.03 846 24.98 1.2 34.2 98 0.9 33.6 1.542 0.061
15:35 1017 30.03 846 24.98 1.2 34.1 98 0.8 33.5 1.548 0.061
15:36 1017 30.03 846 24.98 1.1 34 97 0.7 33.3 1.485 0.058
15:37 1017 30.03 846 24.98 1.1 33.9 97 0.7 33.2 1.452 0.057
15:38 1017 30.03 847 25.01 1.1 33.9 98 0.7 33.3 1.457 0.057
15:39 1017 30.03 847 25.01 1.1 33.9 98 0.7 33.3 1.44 0.057
15:40 1017 30.03 847 25.01 1 33.8 98 0.7 33.2 1.435 0.056
15:41 1017 30.03 847 25.01 1 33.8 98 0.7 33.2 1.469 0.058
15:42 1017 30.03 847 25.01 1 33.8 98 0.7 33.2 1.423 0.056
15:43 1017 30.03 847 25.01 1 33.8 98 0.7 33.3 1.457 0.057
15:44 1017 30.03 847 25.01 1 33.9 98 0.7 33.3 1.44 0.057
15:45 1017 30.03 847 25.01 1.1 33.9 98 0.8 33.4 1.514 0.06
15:46 1017 30.03 847 25.01 1.1 34 98 0.8 33.5 1.491 0.059
15:47 1017 30.03 847 25.01 1.2 34.2 98 0.9 33.7 1.559 0.061
15:48 1017 30.03 847 25.01 1.3 34.3 98 1 33.8 1.723 0.068
15:49 1018 30.06 847 25.01 1.3 34.4 98 1 33.9 1.718 0.068
15:50 1018 30.06 847 25.01 1.4 34.5 98 1 33.9 1.746 0.069
15:51 1018 30.06 847 25.01 1.5 34.6 97 1.1 34 1.814 0.071
15:52 1018 30.06 847 25.01 1.5 34.7 97 1.1 34 1.876 0.074
15:53 1018 30.06 847 25.01 1.5 34.7 97 1.1 33.9 1.887 0.074
15:54 1018 30.06 847 25.01 1.5 34.8 97 1 33.9 1.865 0.073
15:55 1018 30.06 847 25.01 1.5 34.8 96 1 33.8 1.899 0.075
15:56 1018 30.06 847 25.01 1.6 34.8 96 1 33.9 1.876 0.074
15:57 1018 30.06 847 25.01 1.6 34.8 96 1.1 33.9 1.927 0.076
15:58 1018 30.06 847 25.01 1.6 34.9 96 1.1 34 1.944 0.077
15:59 1018 30.06 847 25.01 1.6 34.8 96 1 33.8 1.933 0.076
16:00 1018 30.06 847 25.01 1.4 34.6 96 0.9 33.5 1.814 0.071
16:01 1018 30.06 847 25.01 1.3 34.4 96 0.8 33.5 1.712 0.067
16:02 1018 30.06 847 25.01 1.3 34.3 96 0.8 33.4 1.65 0.065
16:03 1018 30.06 847 25.01 1.2 34.2 97 0.7 33.3 1.582 0.062
16:04 1018 30.06 847 25.01 1.1 34 97 0.6 33.1 1.519 0.06
16:05 1018 30.06 847 25.01 1.1 33.9 97 0.6 33.1 1.48 0.058
16:06 1018 30.06 847 25.01 1 33.8 97 0.6 33 1.44 0.057
16:07 1018 30.06 847 25.01 1 33.8 97 0.6 33 1.412 0.056
16:08 1018 30.06 847 25.01 0.9 33.7 97 0.5 32.9 1.378 0.054
16:09 1018 30.06 847 25.01 0.9 33.6 97 0.5 32.9 1.355 0.053
16:10 1018 30.06 847 25.01 0.9 33.6 97 0.5 33 1.299 0.051
16:11 1018 30.06 847 25.01 0.9 33.5 97 0.5 32.8 1.265 0.05
16:12 1018 30.06 847 25.01 0.9 33.5 98 0.5 32.9 1.242 0.049
16:13 1018 30.06 847 25.01 0.9 33.5 98 0.5 32.9 1.231 0.048
16:14 1018 30.06 847 25.01 0.9 33.6 98 0.5 32.9 1.27 0.05
16:15 1018 30.06 847 25.01 0.8 33.5 98 0.5 32.9 1.236 0.049
16:16 1018 30.06 847 25.01 0.8 33.5 98 0.5 32.9 1.248 0.049
16:17 1018 30.06 847 25.01 0.7 33.3 97 0.3 32.6 1.18 0.046
16:18 1018 30.06 847 25.01 0.7 33.3 98 0.4 32.7 1.129 0.044
16:19 1018 30.06 847 25.01 0.7 33.3 98 0.4 32.7 1.146 0.045
16:20 1018 30.06 847 25.01 0.8 33.4 98 0.5 32.8 1.157 0.046
16:21 1018 30.06 847 25.01 0.8 33.4 98 0.5 32.9 1.208 0.048
16:22 1018 30.06 847 25.01 0.8 33.5 98 0.6 33 1.259 0.05
16:23 1018 30.06 847 25.01 0.9 33.7 98 0.6 33.2 1.31 0.052
16:24 1018 30.06 847 25.01 1 33.7 98 0.7 33.2 1.344 0.053
16:25 1018 30.06 847 25.01 1 33.8 98 0.7 33.2 1.401 0.055
16:26 1018 30.06 847 25.01 1 33.8 98 0.7 33.3 1.429 0.056
16:27 1018 30.06 847 25.01 1.1 33.9 98 0.8 33.4 1.474 0.058
16:28 1018 30.06 847 25.01 1.1 34 98 0.8 33.4 1.474 0.058
16:29 1018 30.06 847 25.01 1.1 34 98 0.8 33.4 1.491 0.059
16:30 1018 30.06 847 25.01 1.1 34 98 0.8 33.4 1.514 0.06
16:31 1018 30.06 847 25.01 1.2 34.1 98 0.8 33.5 1.502 0.059
16:32 1018 30.06 847 25.01 1.2 34.1 98 0.9 33.5 1.576 0.062
16:33 1018 30.06 847 25.01 1.2 34.2 98 0.9 33.6 1.565 0.062
16:34 1018 30.06 847 25.01 1.3 34.3 98 0.9 33.6 1.638 0.064
16:35 1018 30.06 848 25.04 1.3 34.3 98 0.9 33.7 1.655 0.065
16:36 1018 30.06 848 25.04 1.3 34.3 98 0.9 33.7 1.701 0.067
16:37 1018 30.06 848 25.04 1.3 34.4 98 1 33.8 1.661 0.065
16:38 1018 30.06 848 25.04 1.4 34.4 98 1 33.8 1.74 0.069
16:39 1018 30.06 848 25.04 1.4 34.5 98 1 33.8 1.706 0.067
16:40 1018 30.06 848 25.04 1.3 34.4 98 1 33.8 1.712 0.067
16:41 1018 30.06 848 25.04 1.3 34.4 98 1 33.8 1.752 0.069
16:42 1018 30.06 848 25.04 1.3 34.4 98 1 33.8 1.735 0.068
16:43 1018 30.06 848 25.04 1.4 34.4 97 1 33.8 1.735 0.068
16:44 1019 30.09 848 25.04 1.3 34.4 98 1 33.8 1.706 0.067
16:45 1019 30.09 848 25.04 1.3 34.4 97 1 33.7 1.701 0.067
16:46 1019 30.09 848 25.04 1.3 34.4 97 1 33.7 1.684 0.066
16:47 1019 30.09 848 25.04 1.3 34.3 97 0.9 33.7 1.655 0.065
16:48 1019 30.09 848 25.04 1.3 34.3 97 0.9 33.6 1.633 0.064
16:49 1019 30.09 848 25.04 1.3 34.3 97 0.9 33.6 1.65 0.065
16:50 1019 30.09 848 25.04 1.3 34.3 97 0.9 33.6 1.621 0.064
16:51 1019 30.09 848 25.04 1.2 34.2 97 0.8 33.5 1.621 0.064
16:52 1019 30.09 848 25.04 1.2 34.2 97 0.8 33.5 1.553 0.061
16:53 1019 30.09 848 25.04 1.2 34.2 97 0.8 33.4 1.65 0.065
16:54 1019 30.09 848 25.04 1.2 34.2 97 0.8 33.4 1.536 0.06
16:55 1019 30.09 848 25.04 1.2 34.1 97 0.7 33.3 1.559 0.061
16:56 1019 30.09 848 25.04 1.2 34.1 97 0.7 33.3 1.559 0.061
16:57 1019 30.09 848 25.04 1.2 34.1 97 0.7 33.3 1.536 0.06
16:58 1019 30.09 848 25.04 1.1 34 97 0.7 33.2 1.531 0.06
16:59 1019 30.09 848 25.04 1.1 34 97 0.7 33.2 1.474 0.058
17:00 1019 30.09 848 25.04 1.1 34 97 0.7 33.2 1.435 0.056
17:01 1019 30.09 848 25.04 1.1 34 97 0.6 33.2 1.48 0.058
17:02 1019 30.09 848 25.04 1.1 34 97 0.7 33.2 1.469 0.058
17:03 1019 30.09 848 25.04 1.1 34 97 0.7 33.2 1.44 0.057
17:04 1019 30.09 848 25.04 1.1 34 97 0.7 33.2 1.452 0.057
17:05 1019 30.09 848 25.04 1.1 34 97 0.7 33.2 1.48 0.058
17:06 1019 30.09 848 25.04 1.1 34 97 0.7 33.2 1.463 0.058
17:07 1019 30.09 848 25.04 1.1 34 97 0.7 33.3 1.469 0.058
17:08 1019 30.09 848 25.04 1.1 34 97 0.7 33.3 1.497 0.059
17:09 1019 30.09 848 25.04 1.1 34 97 0.7 33.3 1.491 0.059
17:10 1019 30.09 848 25.04 1.2 34.1 97 0.8 33.4 1.542 0.061
17:11 1019 30.09 848 25.04 1.2 34.1 97 0.8 33.4 1.542 0.061
17:12 1019 30.09 848 25.04 1.2 34.1 97 0.8 33.4 1.553 0.061
17:13 1019 30.09 848 25.04 1.2 34.1 97 0.8 33.5 1.553 0.061
17:14 1019 30.09 848 25.04 1.2 34.1 97 0.8 33.4 1.559 0.061
17:15 1019 30.09 848 25.04 1.2 34.2 97 0.8 33.5 1.587 0.062
17:16 1019 30.09 848 25.04 1.2 34.2 97 0.8 33.5 1.61 0.063
17:17 1019 30.09 848 25.04 1.2 34.2 98 0.9 33.5 1.593 0.063
17:18 1019 30.09 848 25.04 1.2 34.2 98 0.9 33.6 1.587 0.062
17:19 1019 30.09 848 25.04 1.3 34.3 98 0.9 33.7 1.604 0.063
17:20 1019 30.09 848 25.04 1.3 34.3 98 0.9 33.7 1.672 0.066
17:21 1019 30.09 848 25.04 1.3 34.3 97 0.9 33.6 1.616 0.064
17:22 1019 30.09 848 25.04 1.1 34 97 0.7 33.2 1.519 0.06
17:23 1019 30.09 848 25.04 1 33.7 97 0.5 33 1.401 0.055
17:24 1019 30.09 848 25.04 0.8 33.5 97 0.4 32.8 1.31 0.052
17:25 1019 30.09 848 25.04 0.8 33.4 97 0.4 32.6 1.174 0.046
17:26 1019 30.09 848 25.04 0.7 33.2 97 0.3 32.6 1.112 0.044
17:27 1019 30.09 848 25.04 0.6 33.1 98 0.3 32.5 1.078 0.042
17:28 1019 30.09 848 25.04 0.6 33 98 0.2 32.4 .993 0.039
17:29 1019 30.09 848 25.04 0.5 33 98 0.2 32.3 .925 0.036
17:30 1019 30.09 848 25.04 0.4 32.8 98 0.1 32.2 .851 0.034
17:31 1019 30.09 848 25.04 0.4 32.7 98 0.1 32.2 .834 0.033
17:32 1019 30.09 848 25.04 0.4 32.7 98 0.1 32.2 .795 0.031
17:33 1019 30.09 848 25.04 0.3 32.6 98 0.1 32.1 .733 0.029
17:34 1019 30.09 849 25.07 0.3 32.6 98 0.1 32.1 .704 0.028
17:35 1019 30.09 849 25.07 0.3 32.5 98 0 32.1 .716 0.028
17:36 1019 30.09 849 25.07 0.3 32.6 98 0.1 32.1 .75 0.03
17:37 1019 30.09 849 25.07 0.4 32.7 98 0.1 32.2 .772 0.03
17:38 1019 30.09 849 25.07 0.3 32.6 98 0.1 32.1 .733 0.029
17:39 1019 30.09 849 25.07 0.3 32.5 98 0.1 32.1 .699 0.028
17:40 1019 30.09 849 25.07 0.3 32.5 98 0 32 .682 0.027
17:41 1020 30.12 849 25.07 0.2 32.4 98 -0 32 .676 0.027
17:42 1020 30.12 849 25.07 0.2 32.4 98 -0.1 31.9 .631 0.025
17:43 1020 30.12 849 25.07 0.1 32.2 98 -0.1 31.7 .551 0.022
17:44 1020 30.12 849 25.07 0.1 32.2 98 -0.2 31.7 .5 0.02
17:45 1020 30.12 849 25.07 0 32.1 98 -0.2 31.7 .432 0.017
17:46 1020 30.12 849 25.07 0 32 98 -0.2 31.6 .387 0.015
17:47 1020 30.12 849 25.07 -0 32 98 -0.2 31.6 .342 0.013
17:48 1020 30.12 849 25.07 -0 32 98 -0.2 31.6 .353 0.014
17:49 1020 30.12 849 25.07 -0 31.9 99 -0.3 31.5 .376 0.015
17:50 1020 30.12 849 25.07 -0.1 31.9 99 -0.3 31.5 .353 0.014
17:51 1020 30.12 849 25.07 -0 32 99 -0.2 31.6 .393 0.015
17:52 1020 30.12 849 25.07 0 32 99 -0.2 31.7 .41 0.016
17:53 1020 30.12 849 25.07 -0 32 99 -0.2 31.6 .365 0.014
17:54 1020 30.12 849 25.07 0 32 99 -0.2 31.7 .382 0.015
17:55 1020 30.12 849 25.07 -0 32 99 -0.2 31.6 .416 0.016
17:56 1020 30.12 849 25.07 0 32 99 -0.2 31.7 .353 0.014
17:57 1020 30.12 849 25.07 0 32 99 -0.2 31.7 .438 0.017
17:58 1020 30.12 849 25.07 0.1 32.2 99 -0 31.9 .568 0.022
17:59 1020 30.12 849 25.07 0.3 32.5 99 0.1 32.2 .693 0.027
18:00 1020 30.12 849 25.07 0.4 32.7 99 0.2 32.4 .829 0.033
18:01 1020 30.12 849 25.07 0.4 32.8 99 0.3 32.5 .88 0.035
18:02 1020 30.12 849 25.07 0.5 32.9 99 0.3 32.6 .908 0.036
18:03 1020 30.12 849 25.07 0.5 32.9 99 0.3 32.5 .891 0.035
18:04 1020 30.12 849 25.07 0.4 32.8 99 0.2 32.4 .857 0.034
18:05 1020 30.12 849 25.07 0.4 32.8 98 0.2 32.3 .834 0.033
18:06 1020 30.12 849 25.07 0.4 32.7 98 0.2 32.3 .829 0.033
18:07 1020 30.12 849 25.07 0.4 32.7 98 0.1 32.2 .772 0.03
18:08 1020 30.12 849 25.07 0.3 32.6 98 0.1 32.2 .727 0.029
18:09 1020 30.12 849 25.07 0.3 32.6 98 0.1 32.2 .716 0.028
18:10 1020 30.12 849 25.07 0.3 32.5 98 0 32.1 .682 0.027
18:11 1020 30.12 849 25.07 0.3 32.5 98 0 32.1 .665 0.026
18:12 1020 30.12 849 25.07 0.2 32.4 98 -0 32 .608 0.024
18:13 1020 30.12 849 25.07 0.2 32.3 98 -0 31.9 .619 0.024
18:14 1020 30.12 849 25.07 0.2 32.3 98 -0.1 31.9 .534 0.021
18:15 1020 30.12 849 25.07 0.2 32.3 99 -0 31.9 .568 0.022
18:16 1020 30.12 849 25.07 0.1 32.2 99 -0.1 31.9 .523 0.021
18:17 1020 30.12 849 25.07 0.1 32.2 99 -0.1 31.9 .512 0.02
18:18 1020 30.12 849 25.07 0.1 32.2 99 -0.1 31.9 .529 0.021
18:19 1020 30.12 849 25.07 0.1 32.2 99 -0.1 31.8 .523 0.021
18:20 1020 30.12 849 25.07 0.1 32.2 99 -0.1 31.8 .506 0.02
18:21 1020 30.12 849 25.07 0.1 32.2 99 -0.1 31.8 .472 0.019
18:22 1020 30.12 849 25.07 0.1 32.2 99 -0.1 31.8 .472 0.019
18:23 1020 30.12 849 25.07 0.1 32.2 99 -0.1 31.9 .449 0.018
18:24 1020 30.12 849 25.07 0.1 32.1 99 -0.1 31.8 .478 0.019
18:25 1020 30.12 849 25.07 0.1 32.2 99 -0.1 31.8 .421 0.017
18:26 1020 30.12 849 25.07 0 32.1 99 -0.1 31.8 .432 0.017
18:27 1020 30.12 849 25.07 0 32 99 -0.2 31.7 .449 0.018
18:28 1020 30.12 849 25.07 0 32 99 -0.2 31.7 .421 0.017
18:29 1020 30.12 849 25.07 0 32 99 -0.2 31.7 .359 0.014
18:30 1020 30.12 849 25.07 0 32 99 -0.2 31.7 .416 0.016
18:31 1020 30.12 849 25.07 0 32 99 -0.1 31.7 .421 0.017
18:32 1020 30.12 849 25.07 0 32 99 -0.2 31.7 .376 0.015
18:33 1020 30.12 849 25.07 0 32 99 -0.2 31.7 .416 0.016
18:34 1020 30.12 850 25.1 0 32.1 99 -0.1 31.8 .41 0.016
18:35 1020 30.12 850 25.1 0 32.1 99 -0.1 31.8 .416 0.016
18:36 1020 30.12 850 25.1 0 32 99 -0.2 31.7 .382 0.015
18:37 1020 30.12 850 25.1 0 32 99 -0.2 31.7 .399 0.016
18:38 1020 30.12 850 25.1 0.1 32.1 99 -0.1 31.8 .421 0.017
18:39 1020 30.12 850 25.1 0.1 32.1 99 -0.1 31.8 .455 0.018
18:40 1020 30.12 850 25.1 0.1 32.2 99 -0.1 31.9 .416 0.016
18:41 1020 30.12 850 25.1 0.1 32.1 99 -0.1 31.8 .444 0.017
18:42 1020 30.12 850 25.1 0.1 32.1 99 -0.1 31.8 .483 0.019
18:43 1020 30.12 850 25.1 0.1 32.1 99 -0.1 31.8 .444 0.017
18:44 1020 30.12 850 25.1 0.1 32.1 99 -0.1 31.8 .466 0.018
18:45 1020 30.12 850 25.1 0.1 32.2 99 -0.1 31.9 .489 0.019
18:46 1021 30.15 850 25.1 0.1 32.2 99 -0.1 31.9 .461 0.018
18:47 1021 30.15 850 25.1 0.1 32.2 99 -0.1 31.9 .478 0.019
18:48 1021 30.15 850 25.1 0.1 32.2 99 -0 31.9 .466 0.018
18:49 1021 30.15 850 25.1 0.1 32.2 99 -0.1 31.9 .478 0.019
18:50 1021 30.15 850 25.1 0.1 32.2 99 -0.1 31.8 .472 0.019
18:51 1021 30.15 850 25.1 0.1 32.1 99 -0.1 31.8 .461 0.018
18:52 1021 30.15 850 25.1 0.1 32.1 99 -0.1 31.8 .427 0.017
18:53 1021 30.15 850 25.1 0.1 32.1 99 -0.1 31.8 .427 0.017
18:54 1021 30.15 850 25.1 0.1 32.1 99 -0.1 31.8 .399 0.016
18:55 1021 30.15 850 25.1 0 32 99 -0.1 31.7 .376 0.015
18:56 1021 30.15 850 25.1 0 32 99 -0.1 31.7 .416 0.016
18:57 1021 30.15 850 25.1 0 32 99 -0.2 31.7 .365 0.014
18:58 1021 30.15 850 25.1 0 32 99 -0.2 31.7 .404 0.016
18:59 1021 30.15 850 25.1 0 32 99 -0.2 31.7 .399 0.016
19:00 1021 30.15 850 25.1 -0 31.9 99 -0.2 31.6 .342 0.013
19:01 1021 30.15 850 25.1 -0 31.9 99 -0.2 31.6 .37 0.015
19:02 1021 30.15 850 25.1 -0 31.9 99 -0.2 31.6 .37 0.015
19:03 1021 30.15 850 25.1 -0.1 31.9 99 -0.2 31.6 .376 0.015
19:04 1021 30.15 850 25.1 -0.1 31.9 99 -0.2 31.6 .331 0.013
19:05 1021 30.15 850 25.1 -0 31.9 99 -0.2 31.6 .331 0.013
19:06 1021 30.15 850 25.1 -0.1 31.9 99 -0.2 31.6 .331 0.013
19:07 1021 30.15 850 25.1 -0.1 31.9 99 -0.2 31.6 .325 0.013
19:08 1021 30.15 850 25.1 -0 32 99 -0.2 31.7 .387 0.015
19:09 1021 30.15 850 25.1 0 32 99 -0.1 31.7 .393 0.015
19:10 1021 30.15 850 25.1 0 32 99 -0.1 31.8 .427 0.017
19:11 1021 30.15 850 25.1 0 32.1 99 -0.1 31.8 .438 0.017
19:12 1021 30.15 850 25.1 0.1 32.1 99 -0.1 31.9 .478 0.019
19:13 1021 30.15 850 25.1 0.1 32.1 99 -0.1 31.8 .438 0.017
19:14 1021 30.15 850 25.1 0.1 32.1 99 -0.1 31.8 .455 0.018
19:15 1021 30.15 850 25.1 0.1 32.1 99 -0.1 31.8 .421 0.017
19:16 1021 30.15 850 25.1 0.1 32.1 99 -0.1 31.8 .404 0.016
19:17 1021 30.15 850 25.1 0 32.1 99 -0.1 31.7 .416 0.016
19:18 1021 30.15 850 25.1 0 32.1 99 -0.1 31.7 .461 0.018
19:19 1021 30.15 850 25.1 0.1 32.1 99 -0.1 31.8 .427 0.017
19:20 1021 30.15 850 25.1 0.1 32.1 99 -0.1 31.8 .449 0.018
19:21 1021 30.15 850 25.1 0.1 32.2 99 -0.1 31.8 .5 0.02
19:22 1021 30.15 850 25.1 0.1 32.2 99 -0 31.9 .432 0.017
19:23 1021 30.15 850 25.1 0.2 32.3 99 -0 32 .512 0.02
19:24 1021 30.15 850 25.1 0.2 32.4 99 0.1 32.1 .563 0.022
19:25 1021 30.15 850 25.1 0.2 32.3 99 0 32 .568 0.022
19:26 1021 30.15 850 25.1 0.2 32.4 99 0 32.1 .614 0.024
19:27 1021 30.15 850 25.1 0.3 32.5 99 0.1 32.2 .642 0.025
19:28 1021 30.15 850 25.1 0.3 32.6 99 0.2 32.3 .648 0.026
19:29 1021 30.15 850 25.1 0.4 32.6 99 0.2 32.3 .716 0.028
19:30 1021 30.15 850 25.1 0.4 32.8 99 0.3 32.5 .783 0.031
19:31 1021 30.15 850 25.1 0.5 32.9 99 0.3 32.5 .829 0.033
19:32 1021 30.15 850 25.1 0.5 32.9 99 0.3 32.6 .88 0.035
19:33 1021 30.15 850 25.1 0.5 32.9 99 0.3 32.5 .857 0.034
19:34 1021 30.15 850 25.1 0.5 33 99 0.3 32.6 .897 0.035
19:35 1021 30.15 850 25.1 0.6 33 99 0.3 32.6 .897 0.035
19:36 1021 30.15 850 25.1 0.6 33 99 0.4 32.7 .931 0.037
19:37 1021 30.15 850 25.1 0.6 33.1 98 0.4 32.7 .982 0.039
19:38 1021 30.15 850 25.1 0.6 33.1 98 0.4 32.7 .942 0.037
19:39 1021 30.15 850 25.1 0.6 33.2 98 0.4 32.7 .993 0.039
19:40 1021 30.15 850 25.1 0.6 33.2 98 0.4 32.7 1.01 0.04
19:41 1021 30.15 850 25.1 0.7 33.2 98 0.4 32.8 1.027 0.04
19:42 1021 30.15 850 25.1 0.7 33.3 98 0.5 32.9 1.095 0.043
19:43 1021 30.15 850 25.1 0.8 33.4 99 0.6 33 1.134 0.045
19:44 1021 30.15 850 25.1 0.8 33.5 98 0.6 33.1 1.231 0.048
19:45 1021 30.15 850 25.1 0.9 33.7 98 0.7 33.3 1.31 0.052
19:46 1021 30.15 850 25.1 1 33.8 98 0.7 33.3 1.355 0.053
19:47 1021 30.15 850 25.1 1 33.9 98 0.8 33.4 1.378 0.054
19:48 1021 30.15 850 25.1 1.1 34 98 0.8 33.5 1.423 0.056
19:49 1021 30.15 850 25.1 1.1 34 98 0.9 33.5 1.457 0.057
19:50 1021 30.15 850 25.1 1.2 34.1 98 0.9 33.6 1.502 0.059
19:51 1021 30.15 850 25.1 1.2 34.2 98 0.9 33.6 1.57 0.062
19:52 1021 30.15 850 25.1 1.2 34.2 98 0.9 33.6 1.593 0.063
19:53 1021 30.15 850 25.1 1.2 34.2 98 0.9 33.6 1.565 0.062
19:54 1021 30.15 850 25.1 1.3 34.3 98 0.9 33.7 1.587 0.062
19:55 1021 30.15 850 25.1 1.2 34.2 98 0.9 33.6 1.638 0.064
19:56 1021 30.15 850 25.1 1.2 34.2 98 0.9 33.6 1.627 0.064
19:57 1021 30.15 850 25.1 1.3 34.3 98 0.9 33.7 1.616 0.064
19:58 1021 30.15 850 25.1 1.3 34.3 98 0.9 33.7 1.644 0.065
19:59 1021 30.15 850 25.1 1.3 34.4 97 1 33.7 1.65 0.065
20:00 1021 30.15 850 25.1 1.3 34.4 97 1 33.7 1.644 0.065
20:01 1021 30.15 850 25.1 1.3 34.3 97 0.9 33.7 1.689 0.066
20:02 1021 30.15 850 25.1 1.3 34.4 97 0.9 33.7 1.689 0.066
20:03 1021 30.15 850 25.1 1.3 34.4 97 0.9 33.7 1.718 0.068
20:04 1021 30.15 850 25.1 1.3 34.4 97 0.9 33.6 1.718 0.068
20:05 1021 30.15 850 25.1 1.3 34.4 97 0.9 33.6 1.701 0.067
20:06 1021 30.15 850 25.1 1.3 34.4 97 0.9 33.6 1.661 0.065
20:07 1021 30.15 850 25.1 1.3 34.4 97 0.9 33.6 1.684 0.066
20:08 1021 30.15 850 25.1 1.3 34.4 97 0.9 33.6 1.672 0.066
20:09 1021 30.15 850 25.1 1.3 34.3 97 0.9 33.6 1.678 0.066
20:10 1021 30.15 850 25.1 1.3 34.3 97 0.9 33.5 1.644 0.065
20:11 1021 30.15 850 25.1 1.3 34.3 97 0.9 33.6 1.65 0.065
20:12 1021 30.15 850 25.1 1.3 34.3 97 0.8 33.5 1.644 0.065
20:13 1021 30.15 850 25.1 1.3 34.3 97 0.8 33.5 1.621 0.064
20:14 1021 30.15 850 25.1 1.3 34.3 97 0.8 33.5 1.61 0.063
20:15 1021 30.15 851 25.13 1.2 34.2 97 0.8 33.4 1.593 0.063
20:16 1021 30.15 851 25.13 1.3 34.3 97 0.8 33.5 1.587 0.062
20:17 1021 30.15 851 25.13 1.2 34.2 97 0.8 33.4 1.576 0.062
20:18 1021 30.15 851 25.13 1.2 34.2 97 0.8 33.4 1.565 0.062
20:19 1021 30.15 851 25.13 1.2 34.2 97 0.8 33.4 1.565 0.062
20:20 1021 30.15 851 25.13 1.2 34.1 97 0.7 33.3 1.565 0.062
20:21 1021 30.15 851 25.13 1.2 34.1 97 0.7 33.3 1.491 0.059
20:22 1021 30.15 851 25.13 1.1 34 97 0.7 33.2 1.514 0.06
20:23 1021 30.15 851 25.13 1.2 34.1 97 0.7 33.3 1.514 0.06
20:24 1021 30.15 851 25.13 1.2 34.1 97 0.7 33.3 1.474 0.058
20:25 1021 30.15 851 25.13 1.2 34.1 97 0.7 33.2 1.519 0.06
20:26 1022 30.18 851 25.13 1.2 34.1 97 0.7 33.3 1.491 0.059
20:27 1022 30.18 851 25.13 1.1 34.1 97 0.7 33.2 1.519 0.06
20:28 1022 30.18 851 25.13 1.1 34.1 97 0.7 33.2 1.502 0.059
20:29 1022 30.18 851 25.13 1.2 34.1 97 0.7 33.3 1.508 0.059
20:30 1022 30.18 851 25.13 1.1 34 97 0.7 33.2 1.474 0.058
20:31 1022 30.18 851 25.13 1.1 34 97 0.6 33.2 1.48 0.058
20:32 1022 30.18 851 25.13 1.1 34.1 97 0.7 33.2 1.48 0.058
20:33 1022 30.18 851 25.13 1.1 34 97 0.7 33.2 1.48 0.058
20:34 1022 30.18 851 25.13 1.1 34 97 0.7 33.2 1.485 0.058
20:35 1022 30.18 851 25.13 1.1 34.1 96 0.6 33.1 1.469 0.058
20:36 1022 30.18 851 25.13 1.1 34 97 0.6 33.1 1.508 0.059
20:37 1022 30.18 851 25.13 1.1 34 97 0.6 33.1 1.48 0.058
20:38 1022 30.18 851 25.13 1.1 34 96 0.6 33.1 1.485 0.058
20:39 1022 30.18 851 25.13 1.1 34.1 97 0.6 33.2 1.463 0.058
20:40 1022 30.18 851 25.13 1.1 34 97 0.7 33.2 1.48 0.058
20:41 1022 30.18 851 25.13 1.1 34 97 0.6 33.1 1.48 0.058
20:42 1022 30.18 851 25.13 1.1 34 96 0.6 33 1.452 0.057
20:43 1022 30.18 851 25.13 1.1 34 97 0.6 33.1 1.474 0.058
20:44 1022 30.18 851 25.13 1.1 34 97 0.6 33.1 1.485 0.058
20:45 1022 30.18 851 25.13 1.1 34 97 0.6 33.1 1.446 0.057
20:46 1022 30.18 851 25.13 1.1 33.9 96 0.6 33 1.446 0.057
20:47 1022 30.18 851 25.13 1.1 33.9 96 0.5 33 1.423 0.056
20:48 1022 30.18 851 25.13 1.1 34 96 0.6 33 1.452 0.057
20:49 1022 30.18 851 25.13 1.1 34 96 0.6 33 1.423 0.056
20:50 1022 30.18 851 25.13 1.1 34 96 0.6 33.1 1.452 0.057
20:51 1022 30.18 851 25.13 1.1 33.9 96 0.5 33 1.457 0.057
20:52 1022 30.18 851 25.13 1.1 33.9 97 0.6 33 1.452 0.057
20:53 1022 30.18 851 25.13 1.1 33.9 96 0.5 33 1.412 0.056
20:54 1022 30.18 851 25.13 1 33.8 96 0.5 32.9 1.384 0.054
20:55 1022 30.18 851 25.13 1 33.9 96 0.5 33 1.389 0.055
20:56 1022 30.18 851 25.13 1 33.9 97 0.5 33 1.406 0.055
20:57 1022 30.18 851 25.13 1 33.8 97 0.5 33 1.372 0.054
20:58 1022 30.18 851 25.13 1 33.8 97 0.5 33 1.412 0.056
20:59 1022 30.18 851 25.13 1 33.8 97 0.5 33 1.378 0.054
21:00 1022 30.18 851 25.13 1 33.8 97 0.5 33 1.389 0.055
21:01 1022 30.18 851 25.13 1 33.9 97 0.6 33 1.389 0.055
21:02 1022 30.18 851 25.13 1 33.8 97 0.5 33 1.384 0.054
21:03 1022 30.18 851 25.13 1 33.8 97 0.5 32.9 1.367 0.054
21:04 1022 30.18 851 25.13 1 33.8 97 0.5 32.9 1.355 0.053
21:05 1022 30.18 851 25.13 1 33.8 97 0.5 33 1.35 0.053
21:06 1022 30.18 851 25.13 1.1 33.9 96 0.5 33 1.344 0.053
21:07 1022 30.18 851 25.13 1 33.8 96 0.5 32.8 1.401 0.055
21:08 1022 30.18 851 25.13 1 33.8 96 0.5 32.9 1.361 0.054
21:09 1022 30.18 851 25.13 1 33.8 96 0.5 32.9 1.355 0.053
21:10 1022 30.18 851 25.13 1 33.8 97 0.5 32.9 1.355 0.053
21:11 1022 30.18 851 25.13 1 33.9 97 0.5 33 1.389 0.055
21:12 1022 30.18 851 25.13 1 33.8 97 0.5 33 1.327 0.052
21:13 1022 30.18 851 25.13 1 33.9 97 0.6 33 1.372 0.054
21:14 1022 30.18 851 25.13 1 33.8 97 0.5 33 1.367 0.054
21:15 1022 30.18 851 25.13 1 33.8 97 0.5 32.9 1.361 0.054
21:16 1022 30.18 851 25.13 1 33.8 97 0.5 32.9 1.361 0.054
21:17 1022 30.18 851 25.13 0.9 33.7 97 0.5 32.9 1.367 0.054
21:18 1022 30.18 851 25.13 1 33.8 97 0.5 33 1.344 0.053
21:19 1022 30.18 851 25.13 0.9 33.7 97 0.5 32.9 1.333 0.052
21:20 1022 30.18 851 25.13 0.9 33.7 97 0.5 33 1.316 0.052
21:21 1022 30.18 851 25.13 0.9 33.7 97 0.5 33 1.321 0.052
21:22 1022 30.18 851 25.13 0.9 33.7 97 0.5 33 1.355 0.053
21:23 1022 30.18 851 25.13 0.9 33.7 97 0.5 33 1.304 0.051
21:24 1022 30.18 851 25.13 0.9 33.6 97 0.5 32.9 1.31 0.052
21:25 1022 30.18 851 25.13 0.9 33.6 97 0.5 33 1.316 0.052
21:26 1022 30.18 851 25.13 0.9 33.6 97 0.5 33 1.31 0.052
21:27 1022 30.18 851 25.13 0.9 33.6 97 0.5 33 1.333 0.052
21:28 1022 30.18 851 25.13 0.9 33.6 97 0.5 33 1.333 0.052
21:29 1022 30.18 851 25.13 0.9 33.6 97 0.5 32.9 1.276 0.05
21:30 1022 30.18 851 25.13 0.9 33.7 97 0.6 33 1.287 0.051
21:31 1022 30.18 851 25.13 0.9 33.6 97 0.5 33 1.282 0.05
21:32 1022 30.18 851 25.13 0.9 33.6 97 0.5 32.9 1.242 0.049
21:33 1022 30.18 851 25.13 0.9 33.6 98 0.5 33 1.225 0.048
21:34 1022 30.18 851 25.13 0.9 33.6 97 0.5 32.9 1.304 0.051
21:35 1022 30.18 851 25.13 0.9 33.6 97 0.5 32.9 1.27 0.05
21:36 1022 30.18 851 25.13 0.9 33.5 97 0.5 32.8 1.265 0.05
21:37 1022 30.18 851 25.13 0.9 33.5 97 0.5 32.9 1.219 0.048
21:38 1022 30.18 851 25.13 0.8 33.5 97 0.5 32.8 1.231 0.048
21:39 1022 30.18 851 25.13 0.8 33.4 97 0.4 32.7 1.248 0.049
21:40 1022 30.18 851 25.13 0.8 33.5 97 0.4 32.7 1.151 0.045
21:41 1022 30.18 851 25.13 0.8 33.4 97 0.4 32.7 1.14 0.045
21:42 1022 30.18 851 25.13 0.8 33.4 97 0.4 32.7 1.118 0.044
21:43 1022 30.18 851 25.13 0.7 33.3 97 0.3 32.6 1.118 0.044
21:44 1022 30.18 851 25.13 0.8 33.4 97 0.3 32.6 1.095 0.043
21:45 1022 30.18 852 25.16 0.8 33.4 97 0.4 32.6 1.118 0.044
21:46 1022 30.18 852 25.16 0.7 33.3 97 0.3 32.6 1.078 0.042
21:47 1022 30.18 852 25.16 0.7 33.3 97 0.3 32.6 1.134 0.045
21:48 1022 30.18 852 25.16 0.8 33.4 97 0.4 32.6 1.055 0.042
21:49 1022 30.18 852 25.16 0.8 33.4 97 0.3 32.6 1.095 0.043
21:50 1022 30.18 852 25.16 0.8 33.4 97 0.3 32.6 1.174 0.046
21:51 1022 30.18 852 25.16 0.8 33.4 97 0.3 32.6 1.129 0.044
21:52 1022 30.18 852 25.16 0.8 33.4 97 0.3 32.6 1.123 0.044
21:53 1022 30.18 852 25.16 0.8 33.4 97 0.3 32.6 1.157 0.046
21:54 1022 30.18 852 25.16 0.8 33.4 97 0.4 32.6 1.112 0.044
21:55 1022 30.18 852 25.16 0.8 33.4 97 0.3 32.6 1.118 0.044
21:56 1022 30.18 852 25.16 0.8 33.4 97 0.3 32.6 1.134 0.045
21:57 1022 30.18 852 25.16 0.8 33.4 97 0.3 32.6 1.118 0.044
21:58 1022 30.18 852 25.16 0.8 33.4 97 0.3 32.6 1.123 0.044
21:59 1022 30.18 852 25.16 0.8 33.4 97 0.3 32.6 1.191 0.047
22:00 1022 30.18 852 25.16 0.8 33.4 97 0.4 32.6 1.157 0.046
22:01 1022 30.18 852 25.16 0.8 33.4 97 0.4 32.6 1.134 0.045
22:02 1022 30.18 852 25.16 0.8 33.4 97 0.3 32.6 1.14 0.045
22:03 1022 30.18 852 25.16 0.8 33.4 97 0.3 32.6 1.134 0.045
22:04 1023 30.21 852 25.16 0.8 33.5 97 0.4 32.7 1.146 0.045
22:05 1023 30.21 852 25.16 0.8 33.5 97 0.4 32.7 1.185 0.047
22:06 1023 30.21 852 25.16 0.8 33.5 97 0.4 32.7 1.202 0.047
22:07 1023 30.21 852 25.16 0.8 33.5 97 0.4 32.7 1.146 0.045
22:08 1023 30.21 852 25.16 0.8 33.5 97 0.4 32.7 1.18 0.046
22:09 1023 30.21 852 25.16 0.8 33.5 97 0.4 32.7 1.191 0.047
22:10 1023 30.21 852 25.16 0.8 33.5 97 0.4 32.7 1.202 0.047
22:11 1023 30.21 852 25.16 0.8 33.5 97 0.4 32.6 1.191 0.047
22:12 1023 30.21 852 25.16 0.8 33.5 97 0.4 32.7 1.191 0.047
22:13 1023 30.21 852 25.16 0.8 33.5 97 0.4 32.7 1.197 0.047
22:14 1023 30.21 852 25.16 0.8 33.5 97 0.4 32.7 1.208 0.048
22:15 1023 30.21 852 25.16 0.8 33.5 97 0.4 32.7 1.208 0.048
22:16 1023 30.21 852 25.16 0.9 33.6 97 0.4 32.7 1.18 0.046
22:17 1023 30.21 852 25.16 0.9 33.6 96 0.4 32.7 1.214 0.048
22:18 1023 30.21 852 25.16 0.8 33.5 96 0.3 32.6 1.18 0.046
22:19 1023 30.21 852 25.16 0.8 33.5 97 0.3 32.6 1.197 0.047
22:20 1023 30.21 852 25.16 0.8 33.5 97 0.4 32.6 1.202 0.047
22:21 1023 30.21 852 25.16 0.9 33.5 97 0.4 32.7 1.225 0.048
22:22 1023 30.21 852 25.16 0.9 33.5 97 0.4 32.7 1.185 0.047
22:23 1023 30.21 852 25.16 0.8 33.5 97 0.3 32.6 1.219 0.048
22:24 1023 30.21 852 25.16 0.8 33.5 97 0.3 32.6 1.219 0.048
22:25 1023 30.21 852 25.16 0.8 33.4 97 0.3 32.6 1.197 0.047
22:26 1023 30.21 852 25.16 0.8 33.4 97 0.3 32.5 1.146 0.045
22:27 1023 30.21 852 25.16 0.8 33.5 97 0.3 32.6 1.151 0.045
22:28 1023 30.21 852 25.16 0.8 33.4 97 0.4 32.6 1.174 0.046
22:29 1023 30.21 852 25.16 0.8 33.4 97 0.3 32.6 1.157 0.046
22:30 1023 30.21 852 25.16 0.8 33.4 97 0.3 32.6 1.134 0.045
22:31 1023 30.21 852 25.16 0.8 33.4 97 0.4 32.7 1.134 0.045
22:32 1023 30.21 852 25.16 0.8 33.4 97 0.3 32.6 1.112 0.044
22:33 1023 30.21 852 25.16 0.7 33.3 97 0.3 32.5 1.089 0.043
22:34 1023 30.21 852 25.16 0.7 33.3 97 0.3 32.5 1.084 0.043
22:35 1023 30.21 852 25.16 0.7 33.3 97 0.2 32.4 1.078 0.042
22:36 1023 30.21 852 25.16 0.7 33.3 97 0.2 32.4 1.05 0.041
22:37 1023 30.21 852 25.16 0.7 33.3 97 0.2 32.4 1.038 0.041
22:38 1023 30.21 852 25.16 0.7 33.3 97 0.2 32.4 1.027 0.04
22:39 1023 30.21 852 25.16 0.7 33.3 97 0.2 32.4 1.021 0.04
22:40 1023 30.21 852 25.16 0.7 33.2 97 0.2 32.4 1.033 0.041
22:41 1023 30.21 852 25.16 0.7 33.2 97 0.2 32.4 1.01 0.04
22:42 1023 30.21 852 25.16 0.6 33.1 97 0.1 32.2 .953 0.038
22:43 1023 30.21 852 25.16 0.6 33.1 97 0.2 32.3 .97 0.038
22:44 1023 30.21 852 25.16 0.6 33.1 97 0.1 32.2 .976 0.038
22:45 1023 30.21 852 25.16 0.6 33.1 97 0.1 32.2 .953 0.038
22:46 1023 30.21 852 25.16 0.6 33.1 97 0.1 32.2 .942 0.037
22:47 1023 30.21 852 25.16 0.6 33.1 97 0.1 32.2 .919 0.036
22:48 1023 30.21 852 25.16 0.6 33 97 0.1 32.2 .953 0.038
22:49 1023 30.21 852 25.16 0.5 33 97 0.1 32.1 .959 0.038
22:50 1023 30.21 852 25.16 0.6 33 97 0.1 32.2 .891 0.035
22:51 1023 30.21 852 25.16 0.6 33 97 0.1 32.2 .908 0.036
22:52 1023 30.21 852 25.16 0.6 33 97 0.1 32.2 .936 0.037
22:53 1023 30.21 852 25.16 0.6 33 97 0.1 32.2 .959 0.038
22:54 1023 30.21 852 25.16 0.6 33 97 0.1 32.2 .897 0.035
22:55 1023 30.21 852 25.16 0.5 33 97 0.1 32.1 .936 0.037
22:56 1023 30.21 852 25.16 0.6 33 97 0.1 32.1 .919 0.036
22:57 1023 30.21 852 25.16 0.6 33 97 0.1 32.2 .874 0.034
22:58 1023 30.21 852 25.16 0.6 33.1 96 0.1 32.2 .902 0.036
22:59 1023 30.21 852 25.16 0.6 33 96 0 32.1 .897 0.035
23:00 1023 30.21 852 25.16 0.5 33 96 -0 32 .908 0.036
23:01 1023 30.21 852 25.16 0.5 32.9 96 -0 31.9 .857 0.034
23:02 1023 30.21 852 25.16 0.5 33 96 -0 32 .829 0.033
23:03 1023 30.21 852 25.16 0.5 32.9 96 -0 31.9 .846 0.033
23:04 1023 30.21 852 25.16 0.5 32.9 96 -0 31.9 .812 0.032
23:05 1023 30.21 852 25.16 0.5 32.9 96 -0 32 .817 0.032
23:06 1023 30.21 852 25.16 0.5 33 96 -0 32 .823 0.032
23:07 1023 30.21 852 25.16 0.5 33 96 -0 32 .874 0.034
23:08 1023 30.21 852 25.16 0.6 33 96 0 32 .891 0.035
23:09 1023 30.21 852 25.16 0.6 33.1 96 0 32 .897 0.035
23:10 1023 30.21 852 25.16 0.6 33.1 96 0 32 .948 0.037
23:11 1023 30.21 852 25.16 0.6 33.2 96 0 32 .948 0.037
23:12 1023 30.21 852 25.16 0.7 33.2 96 0.1 32.1 .965 0.038
23:13 1023 30.21 852 25.16 0.7 33.2 95 -0 32 1.004 0.04
23:14 1023 30.21 852 25.16 0.6 33.2 96 0 32 1.004 0.04
23:15 1023 30.21 852 25.16 0.6 33.2 96 0 32 1.033 0.041
23:16 1023 30.21 852 25.16 0.7 33.2 96 0.1 32.1 .993 0.039
23:17 1023 30.21 852 25.16 0.6 33.2 96 0 32 1.038 0.041
23:18 1023 30.21 852 25.16 0.6 33.2 96 0 32.1 .999 0.039
23:19 1023 30.21 852 25.16 0.6 33.1 96 0 32.1 1.033 0.041
23:20 1023 30.21 852 25.16 0.6 33.1 96 0.1 32.1 .965 0.038
23:21 1023 30.21 852 25.16 0.6 33.1 96 0.1 32.1 1.004 0.04
23:22 1023 30.21 852 25.16 0.6 33.1 96 0.1 32.1 1.004 0.04
23:23 1023 30.21 852 25.16 0.6 33.2 96 0.1 32.1 1.016 0.04
23:24 1023 30.21 852 25.16 0.7 33.2 96 0.1 32.2 .993 0.039
23:25 1023 30.21 852 25.16 0.6 33.1 96 0.1 32.1 1.01 0.04
23:26 1023 30.21 852 25.16 0.6 33.1 96 0 32.1 1.004 0.04
23:27 1023 30.21 852 25.16 0.6 33.2 96 0.1 32.1 .965 0.038
23:28 1023 30.21 852 25.16 0.7 33.2 96 0.1 32.2 .982 0.039
23:29 1023 30.21 852 25.16 0.6 33.1 96 0 32 .976 0.038
23:30 1023 30.21 852 25.16 0.6 33.1 96 0 32 .959 0.038
23:31 1023 30.21 852 25.16 0.6 33.1 96 0 32 .953 0.038
23:32 1023 30.21 852 25.16 0.6 33.1 96 -0 32 .942 0.037
23:33 1023 30.21 852 25.16 0.5 33 96 -0.1 31.9 .925 0.036
23:34 1023 30.21 852 25.16 0.6 33 96 -0.1 31.9 .897 0.035
23:35 1023 30.21 852 25.16 0.5 33 96 -0.1 31.9 .885 0.035
23:36 1023 30.21 852 25.16 0.5 32.9 96 -0.1 31.9 .88 0.035
23:37 1023 30.21 852 25.16 0.5 33 96 -0.1 31.9 .908 0.036
23:38 1023 30.21 852 25.16 0.5 33 96 -0.1 31.9 .829 0.033
23:39 1023 30.21 852 25.16 0.5 33 96 -0.1 31.8 .846 0.033
23:40 1023 30.21 852 25.16 0.5 32.9 96 -0.1 31.8 .868 0.034
23:41 1023 30.21 852 25.16 0.6 33 96 -0.1 31.8 .902 0.036
23:42 1023 30.21 852 25.16 0.6 33 95 -0.1 31.8 .931 0.037
23:43 1023 30.21 852 25.16 0.6 33.1 95 -0.1 31.9 .959 0.038
23:44 1023 30.21 852 25.16 0.7 33.2 95 -0 31.9 .993 0.039
23:45 1023 30.21 852 25.16 0.7 33.3 95 -0.1 31.9 1.004 0.04
23:46 1023 30.21 852 25.16 0.8 33.4 94 -0.1 31.8 1.033 0.041
23:47 1023 30.21 852 25.16 0.8 33.4 94 -0.1 31.7 1.027 0.04
23:48 1023 30.21 852 25.16 0.8 33.5 93 -0.1 31.8 1.067 0.042
23:49 1023 30.21 852 25.16 0.8 33.5 93 -0.1 31.8 1.101 0.043
23:50 1023 30.21 852 25.16 0.8 33.5 93 -0.2 31.7 1.084 0.043
23:51 1023 30.21 852 25.16 0.8 33.5 93 -0.2 31.7 1.157 0.046
23:52 1023 30.21 852 25.16 0.8 33.5 93 -0.2 31.7 1.129 0.044
23:53 1023 30.21 852 25.16 0.8 33.5 93 -0.1 31.8 1.095 0.043
23:54 1023 30.21 852 25.16 0.8 33.5 93 -0.1 31.8 1.129 0.044
23:55 1023 30.21 852 25.16 0.8 33.4 94 -0.2 31.7 1.134 0.045
23:56 1023 30.21 852 25.16 0.8 33.4 94 -0.1 31.8 1.106 0.044
23:57 1023 30.21 852 25.16 0.8 33.4 94 -0.1 31.8 1.101 0.043
23:58 1023 30.21 852 25.16 0.8 33.4 94 -0.1 31.8 1.067 0.042
23:59 1023 30.21 852 25.16 0.7 33.3 94 -0.1 31.7 1.061 0.042
24:00 1023 30.21 852 25.16 0.7 33.3 94 -0.1 31.8 1.01 0.04